<?xml version="1.0" encoding="UTF-8" standalone="no" ?>
<gpx xmlns="http://www.topografix.com/GPX/1/1" xmlns:xsi="http://www.w3.org/2001/XMLSchema-instance" xsi:schemaLocation="http://www.topografix.com/GPX/1/1 http://www.topografix.com/GPX/1/1/gpx.xsd" version="1.1" creator="VisuGPX - https://www.visugpx.com">
  <metadata>
    <name>Plo del Naou</name>
    <desc><![CDATA[Sortie raquette sur le Plo del Naou]]></desc>
  </metadata>
  <wpt lat="42.93714" lon="0.30276">
    <ele>1150</ele>
    <name><![CDATA[Parking Payolle]]></name>
  </wpt>
  <wpt lat="42.93175" lon="0.31936">
    <ele>1620</ele>
    <name><![CDATA[Crete de Bidour]]></name>
  </wpt>
  <wpt lat="42.91926" lon="0.31307">
    <ele>1754</ele>
    <name><![CDATA[Plo del Naou]]></name>
  </wpt>
  <wpt lat="42.90305" lon="0.30515">
    <ele>1564</ele>
    <name><![CDATA[Hourquette Arreau]]></name>
  </wpt>
  <wpt lat="42.91209" lon="0.29887">
    <ele>1409</ele>
    <name><![CDATA[Cabanes de la Hosse]]></name>
  </wpt>
  <wpt lat="42.92723" lon="0.29611">
    <ele>1280</ele>
    <name><![CDATA[Croisement pistes]]></name>
  </wpt>
  <trk>
    <name><![CDATA[Plo del Naou]]></name>
    <trkseg>
      <trkpt lat="42.93714" lon="0.30276">
        <ele>1158.1</ele>
        <time>2013-03-15T08:58:46Z</time>
      </trkpt>
      <trkpt lat="42.93704" lon="0.30281">
        <ele>1157.1</ele>
        <time>2013-03-15T08:59:02Z</time>
      </trkpt>
      <trkpt lat="42.93695" lon="0.30288">
        <ele>1156.1</ele>
        <time>2013-03-15T08:59:13Z</time>
      </trkpt>
      <trkpt lat="42.93685" lon="0.30287">
        <ele>1155.6</ele>
        <time>2013-03-15T08:59:23Z</time>
      </trkpt>
      <trkpt lat="42.93676" lon="0.30283">
        <ele>1154.7</ele>
        <time>2013-03-15T08:59:34Z</time>
      </trkpt>
      <trkpt lat="42.9367" lon="0.3027">
        <ele>1154.2</ele>
        <time>2013-03-15T08:59:44Z</time>
      </trkpt>
      <trkpt lat="42.93662" lon="0.30266">
        <ele>1153.2</ele>
        <time>2013-03-15T08:59:54Z</time>
      </trkpt>
      <trkpt lat="42.93653" lon="0.30258">
        <ele>1153.7</ele>
        <time>2013-03-15T09:00:06Z</time>
      </trkpt>
      <trkpt lat="42.93646" lon="0.30248">
        <ele>1152.8</ele>
        <time>2013-03-15T09:00:17Z</time>
      </trkpt>
      <trkpt lat="42.9364" lon="0.30238">
        <ele>1152.3</ele>
        <time>2013-03-15T09:00:27Z</time>
      </trkpt>
      <trkpt lat="42.93634" lon="0.30228">
        <ele>1151.8</ele>
        <time>2013-03-15T09:00:38Z</time>
      </trkpt>
      <trkpt lat="42.93628" lon="0.30217">
        <ele>1151.8</ele>
        <time>2013-03-15T09:00:49Z</time>
      </trkpt>
      <trkpt lat="42.93621" lon="0.30206">
        <ele>1151.3</ele>
        <time>2013-03-15T09:01:00Z</time>
      </trkpt>
      <trkpt lat="42.93615" lon="0.30194">
        <ele>1150.8</ele>
        <time>2013-03-15T09:01:11Z</time>
      </trkpt>
      <trkpt lat="42.93609" lon="0.30184">
        <ele>1150.3</ele>
        <time>2013-03-15T09:01:22Z</time>
      </trkpt>
      <trkpt lat="42.93602" lon="0.3018">
        <ele>1150.8</ele>
        <time>2013-03-15T09:01:33Z</time>
      </trkpt>
      <trkpt lat="42.93596" lon="0.30168">
        <ele>1150.3</ele>
        <time>2013-03-15T09:01:44Z</time>
      </trkpt>
      <trkpt lat="42.93592" lon="0.30157">
        <ele>1150.3</ele>
        <time>2013-03-15T09:01:54Z</time>
      </trkpt>
      <trkpt lat="42.93586" lon="0.30147">
        <ele>1149.9</ele>
        <time>2013-03-15T09:02:04Z</time>
      </trkpt>
      <trkpt lat="42.9358" lon="0.30137">
        <ele>1149.4</ele>
        <time>2013-03-15T09:02:14Z</time>
      </trkpt>
      <trkpt lat="42.93575" lon="0.30126">
        <ele>1148.9</ele>
        <time>2013-03-15T09:02:26Z</time>
      </trkpt>
      <trkpt lat="42.93579" lon="0.3013">
        <ele>1148.9</ele>
        <time>2013-03-15T09:02:39Z</time>
      </trkpt>
      <trkpt lat="42.93574" lon="0.30122">
        <ele>1148.9</ele>
        <time>2013-03-15T09:03:10Z</time>
      </trkpt>
      <trkpt lat="42.93567" lon="0.30111">
        <ele>1148.9</ele>
        <time>2013-03-15T09:03:21Z</time>
      </trkpt>
      <trkpt lat="42.93562" lon="0.30099">
        <ele>1147.9</ele>
        <time>2013-03-15T09:03:31Z</time>
      </trkpt>
      <trkpt lat="42.93557" lon="0.30089">
        <ele>1147.9</ele>
        <time>2013-03-15T09:03:40Z</time>
      </trkpt>
      <trkpt lat="42.9355" lon="0.3008">
        <ele>1147</ele>
        <time>2013-03-15T09:03:50Z</time>
      </trkpt>
      <trkpt lat="42.93543" lon="0.30072">
        <ele>1146.5</ele>
        <time>2013-03-15T09:04:00Z</time>
      </trkpt>
      <trkpt lat="42.93535" lon="0.30066">
        <ele>1145.6</ele>
        <time>2013-03-15T09:04:10Z</time>
      </trkpt>
      <trkpt lat="42.93525" lon="0.30062">
        <ele>1145.6</ele>
        <time>2013-03-15T09:04:18Z</time>
      </trkpt>
      <trkpt lat="42.93518" lon="0.30053">
        <ele>1145.6</ele>
        <time>2013-03-15T09:04:27Z</time>
      </trkpt>
      <trkpt lat="42.93514" lon="0.30039">
        <ele>1146</ele>
        <time>2013-03-15T09:04:36Z</time>
      </trkpt>
      <trkpt lat="42.93512" lon="0.30025">
        <ele>1145.6</ele>
        <time>2013-03-15T09:04:45Z</time>
      </trkpt>
      <trkpt lat="42.93508" lon="0.30011">
        <ele>1145.1</ele>
        <time>2013-03-15T09:04:54Z</time>
      </trkpt>
      <trkpt lat="42.93504" lon="0.29999">
        <ele>1145.6</ele>
        <time>2013-03-15T09:05:03Z</time>
      </trkpt>
      <trkpt lat="42.93498" lon="0.29989">
        <ele>1145.1</ele>
        <time>2013-03-15T09:05:25Z</time>
      </trkpt>
      <trkpt lat="42.93489" lon="0.29982">
        <ele>1145.1</ele>
        <time>2013-03-15T09:05:34Z</time>
      </trkpt>
      <trkpt lat="42.93482" lon="0.29973">
        <ele>1144.6</ele>
        <time>2013-03-15T09:05:43Z</time>
      </trkpt>
      <trkpt lat="42.93476" lon="0.29961">
        <ele>1144.6</ele>
        <time>2013-03-15T09:05:53Z</time>
      </trkpt>
      <trkpt lat="42.93471" lon="0.29948">
        <ele>1145.1</ele>
        <time>2013-03-15T09:06:04Z</time>
      </trkpt>
      <trkpt lat="42.93467" lon="0.29935">
        <ele>1145.1</ele>
        <time>2013-03-15T09:06:14Z</time>
      </trkpt>
      <trkpt lat="42.93463" lon="0.29924">
        <ele>1144.1</ele>
        <time>2013-03-15T09:06:24Z</time>
      </trkpt>
      <trkpt lat="42.93459" lon="0.29911">
        <ele>1144.1</ele>
        <time>2013-03-15T09:06:34Z</time>
      </trkpt>
      <trkpt lat="42.93454" lon="0.299">
        <ele>1143.6</ele>
        <time>2013-03-15T09:06:43Z</time>
      </trkpt>
      <trkpt lat="42.93448" lon="0.29888">
        <ele>1143.6</ele>
        <time>2013-03-15T09:06:52Z</time>
      </trkpt>
      <trkpt lat="42.93441" lon="0.29878">
        <ele>1144.1</ele>
        <time>2013-03-15T09:07:01Z</time>
      </trkpt>
      <trkpt lat="42.93433" lon="0.29869">
        <ele>1143.6</ele>
        <time>2013-03-15T09:07:11Z</time>
      </trkpt>
      <trkpt lat="42.93426" lon="0.29859">
        <ele>1144.1</ele>
        <time>2013-03-15T09:07:21Z</time>
      </trkpt>
      <trkpt lat="42.93418" lon="0.2985">
        <ele>1144.6</ele>
        <time>2013-03-15T09:07:30Z</time>
      </trkpt>
      <trkpt lat="42.9341" lon="0.29842">
        <ele>1144.6</ele>
        <time>2013-03-15T09:07:40Z</time>
      </trkpt>
      <trkpt lat="42.93405" lon="0.29831">
        <ele>1143.6</ele>
        <time>2013-03-15T09:07:49Z</time>
      </trkpt>
      <trkpt lat="42.934" lon="0.29819">
        <ele>1144.1</ele>
        <time>2013-03-15T09:07:58Z</time>
      </trkpt>
      <trkpt lat="42.93395" lon="0.29808">
        <ele>1144.6</ele>
        <time>2013-03-15T09:08:07Z</time>
      </trkpt>
      <trkpt lat="42.93389" lon="0.29798">
        <ele>1144.6</ele>
        <time>2013-03-15T09:08:16Z</time>
      </trkpt>
      <trkpt lat="42.93382" lon="0.29789">
        <ele>1144.6</ele>
        <time>2013-03-15T09:08:32Z</time>
      </trkpt>
      <trkpt lat="42.93379" lon="0.29787">
        <ele>1139.3</ele>
        <time>2013-03-15T09:10:25Z</time>
      </trkpt>
      <trkpt lat="42.93369" lon="0.2978">
        <ele>1143.1</ele>
        <time>2013-03-15T09:12:13Z</time>
      </trkpt>
      <trkpt lat="42.93361" lon="0.29773">
        <ele>1143.6</ele>
        <time>2013-03-15T09:12:21Z</time>
      </trkpt>
      <trkpt lat="42.93353" lon="0.29771">
        <ele>1143.1</ele>
        <time>2013-03-15T09:12:30Z</time>
      </trkpt>
      <trkpt lat="42.93342" lon="0.29769">
        <ele>1143.1</ele>
        <time>2013-03-15T09:12:38Z</time>
      </trkpt>
      <trkpt lat="42.93331" lon="0.29767">
        <ele>1143.1</ele>
        <time>2013-03-15T09:12:46Z</time>
      </trkpt>
      <trkpt lat="42.93319" lon="0.29767">
        <ele>1143.1</ele>
        <time>2013-03-15T09:12:54Z</time>
      </trkpt>
      <trkpt lat="42.93307" lon="0.29768">
        <ele>1143.6</ele>
        <time>2013-03-15T09:13:02Z</time>
      </trkpt>
      <trkpt lat="42.93296" lon="0.29764">
        <ele>1143.6</ele>
        <time>2013-03-15T09:13:11Z</time>
      </trkpt>
      <trkpt lat="42.93286" lon="0.29761">
        <ele>1143.6</ele>
        <time>2013-03-15T09:13:20Z</time>
      </trkpt>
      <trkpt lat="42.93277" lon="0.29757">
        <ele>1143.6</ele>
        <time>2013-03-15T09:13:31Z</time>
      </trkpt>
      <trkpt lat="42.93268" lon="0.29755">
        <ele>1142.7</ele>
        <time>2013-03-15T09:13:42Z</time>
      </trkpt>
      <trkpt lat="42.93258" lon="0.29758">
        <ele>1143.1</ele>
        <time>2013-03-15T09:13:53Z</time>
      </trkpt>
      <trkpt lat="42.93248" lon="0.29761">
        <ele>1143.1</ele>
        <time>2013-03-15T09:14:03Z</time>
      </trkpt>
      <trkpt lat="42.93239" lon="0.29762">
        <ele>1144.6</ele>
        <time>2013-03-15T09:14:13Z</time>
      </trkpt>
      <trkpt lat="42.93229" lon="0.29763">
        <ele>1144.1</ele>
        <time>2013-03-15T09:14:24Z</time>
      </trkpt>
      <trkpt lat="42.9322" lon="0.29764">
        <ele>1144.1</ele>
        <time>2013-03-15T09:14:34Z</time>
      </trkpt>
      <trkpt lat="42.93211" lon="0.29765">
        <ele>1144.6</ele>
        <time>2013-03-15T09:14:44Z</time>
      </trkpt>
      <trkpt lat="42.93201" lon="0.29767">
        <ele>1144.6</ele>
        <time>2013-03-15T09:14:55Z</time>
      </trkpt>
      <trkpt lat="42.93192" lon="0.29769">
        <ele>1145.6</ele>
        <time>2013-03-15T09:15:06Z</time>
      </trkpt>
      <trkpt lat="42.93183" lon="0.29772">
        <ele>1145.6</ele>
        <time>2013-03-15T09:15:17Z</time>
      </trkpt>
      <trkpt lat="42.93175" lon="0.29778">
        <ele>1146</ele>
        <time>2013-03-15T09:15:28Z</time>
      </trkpt>
      <trkpt lat="42.93166" lon="0.29784">
        <ele>1147</ele>
        <time>2013-03-15T09:15:39Z</time>
      </trkpt>
      <trkpt lat="42.93156" lon="0.29787">
        <ele>1147.5</ele>
        <time>2013-03-15T09:15:51Z</time>
      </trkpt>
      <trkpt lat="42.93147" lon="0.29791">
        <ele>1147.5</ele>
        <time>2013-03-15T09:16:02Z</time>
      </trkpt>
      <trkpt lat="42.93136" lon="0.29793">
        <ele>1148.4</ele>
        <time>2013-03-15T09:16:13Z</time>
      </trkpt>
      <trkpt lat="42.93128" lon="0.29796">
        <ele>1147.9</ele>
        <time>2013-03-15T09:16:23Z</time>
      </trkpt>
      <trkpt lat="42.93119" lon="0.298">
        <ele>1147.9</ele>
        <time>2013-03-15T09:16:34Z</time>
      </trkpt>
      <trkpt lat="42.9311" lon="0.29804">
        <ele>1148.4</ele>
        <time>2013-03-15T09:16:44Z</time>
      </trkpt>
      <trkpt lat="42.93101" lon="0.29806">
        <ele>1148.4</ele>
        <time>2013-03-15T09:16:55Z</time>
      </trkpt>
      <trkpt lat="42.93096" lon="0.29811">
        <ele>1149.4</ele>
        <time>2013-03-15T09:18:37Z</time>
      </trkpt>
      <trkpt lat="42.93094" lon="0.29825">
        <ele>1148.9</ele>
        <time>2013-03-15T09:18:48Z</time>
      </trkpt>
      <trkpt lat="42.9309" lon="0.29838">
        <ele>1149.4</ele>
        <time>2013-03-15T09:18:59Z</time>
      </trkpt>
      <trkpt lat="42.93086" lon="0.29851">
        <ele>1150.8</ele>
        <time>2013-03-15T09:19:11Z</time>
      </trkpt>
      <trkpt lat="42.93082" lon="0.29863">
        <ele>1151.8</ele>
        <time>2013-03-15T09:19:25Z</time>
      </trkpt>
      <trkpt lat="42.93077" lon="0.29874">
        <ele>1153.2</ele>
        <time>2013-03-15T09:19:39Z</time>
      </trkpt>
      <trkpt lat="42.93074" lon="0.29884">
        <ele>1154.7</ele>
        <time>2013-03-15T09:19:58Z</time>
      </trkpt>
      <trkpt lat="42.93075" lon="0.29896">
        <ele>1157.6</ele>
        <time>2013-03-15T09:20:15Z</time>
      </trkpt>
      <trkpt lat="42.93078" lon="0.29911">
        <ele>1160</ele>
        <time>2013-03-15T09:20:33Z</time>
      </trkpt>
      <trkpt lat="42.93079" lon="0.29927">
        <ele>1163.8</ele>
        <time>2013-03-15T09:20:51Z</time>
      </trkpt>
      <trkpt lat="42.93085" lon="0.29937">
        <ele>1166.7</ele>
        <time>2013-03-15T09:21:10Z</time>
      </trkpt>
      <trkpt lat="42.93094" lon="0.29952">
        <ele>1171</ele>
        <time>2013-03-15T09:21:31Z</time>
      </trkpt>
      <trkpt lat="42.93098" lon="0.29968">
        <ele>1175.3</ele>
        <time>2013-03-15T09:21:55Z</time>
      </trkpt>
      <trkpt lat="42.931" lon="0.29985">
        <ele>1178.7</ele>
        <time>2013-03-15T09:22:17Z</time>
      </trkpt>
      <trkpt lat="42.93103" lon="0.30001">
        <ele>1183</ele>
        <time>2013-03-15T09:22:35Z</time>
      </trkpt>
      <trkpt lat="42.93105" lon="0.30016">
        <ele>1185.9</ele>
        <time>2013-03-15T09:22:52Z</time>
      </trkpt>
      <trkpt lat="42.93111" lon="0.30028">
        <ele>1189.3</ele>
        <time>2013-03-15T09:23:15Z</time>
      </trkpt>
      <trkpt lat="42.93117" lon="0.30044">
        <ele>1193.1</ele>
        <time>2013-03-15T09:23:38Z</time>
      </trkpt>
      <trkpt lat="42.93115" lon="0.30049">
        <ele>1194.6</ele>
        <time>2013-03-15T09:27:20Z</time>
      </trkpt>
      <trkpt lat="42.93123" lon="0.30061">
        <ele>1197.5</ele>
        <time>2013-03-15T09:27:42Z</time>
      </trkpt>
      <trkpt lat="42.93127" lon="0.30075">
        <ele>1200.8</ele>
        <time>2013-03-15T09:28:02Z</time>
      </trkpt>
      <trkpt lat="42.93131" lon="0.30089">
        <ele>1204.7</ele>
        <time>2013-03-15T09:28:27Z</time>
      </trkpt>
      <trkpt lat="42.93136" lon="0.30106">
        <ele>1208.5</ele>
        <time>2013-03-15T09:28:49Z</time>
      </trkpt>
      <trkpt lat="42.93142" lon="0.30117">
        <ele>1211.4</ele>
        <time>2013-03-15T09:29:06Z</time>
      </trkpt>
      <trkpt lat="42.93148" lon="0.30128">
        <ele>1214.8</ele>
        <time>2013-03-15T09:29:44Z</time>
      </trkpt>
      <trkpt lat="42.93154" lon="0.30141">
        <ele>1219.1</ele>
        <time>2013-03-15T09:30:11Z</time>
      </trkpt>
      <trkpt lat="42.93163" lon="0.30153">
        <ele>1222.9</ele>
        <time>2013-03-15T09:30:33Z</time>
      </trkpt>
      <trkpt lat="42.93167" lon="0.30165">
        <ele>1226.8</ele>
        <time>2013-03-15T09:30:57Z</time>
      </trkpt>
      <trkpt lat="42.93173" lon="0.30178">
        <ele>1230.6</ele>
        <time>2013-03-15T09:31:21Z</time>
      </trkpt>
      <trkpt lat="42.93181" lon="0.30194">
        <ele>1234.9</ele>
        <time>2013-03-15T09:31:46Z</time>
      </trkpt>
      <trkpt lat="42.93186" lon="0.30208">
        <ele>1238.3</ele>
        <time>2013-03-15T09:32:07Z</time>
      </trkpt>
      <trkpt lat="42.9319" lon="0.30222">
        <ele>1241.7</ele>
        <time>2013-03-15T09:32:30Z</time>
      </trkpt>
      <trkpt lat="42.93197" lon="0.30235">
        <ele>1245.5</ele>
        <time>2013-03-15T09:32:55Z</time>
      </trkpt>
      <trkpt lat="42.93202" lon="0.30245">
        <ele>1249.8</ele>
        <time>2013-03-15T09:33:18Z</time>
      </trkpt>
      <trkpt lat="42.9321" lon="0.30259">
        <ele>1252.2</ele>
        <time>2013-03-15T09:33:37Z</time>
      </trkpt>
      <trkpt lat="42.93213" lon="0.30274">
        <ele>1255.6</ele>
        <time>2013-03-15T09:33:59Z</time>
      </trkpt>
      <trkpt lat="42.93216" lon="0.30291">
        <ele>1259.5</ele>
        <time>2013-03-15T09:34:22Z</time>
      </trkpt>
      <trkpt lat="42.93216" lon="0.30308">
        <ele>1260.9</ele>
        <time>2013-03-15T09:34:40Z</time>
      </trkpt>
      <trkpt lat="42.93213" lon="0.30325">
        <ele>1262.3</ele>
        <time>2013-03-15T09:34:57Z</time>
      </trkpt>
      <trkpt lat="42.93215" lon="0.30339">
        <ele>1264.8</ele>
        <time>2013-03-15T09:35:15Z</time>
      </trkpt>
      <trkpt lat="42.93216" lon="0.30355">
        <ele>1266.2</ele>
        <time>2013-03-15T09:35:34Z</time>
      </trkpt>
      <trkpt lat="42.93214" lon="0.3037">
        <ele>1269.1</ele>
        <time>2013-03-15T09:35:53Z</time>
      </trkpt>
      <trkpt lat="42.93214" lon="0.30391">
        <ele>1272.4</ele>
        <time>2013-03-15T09:36:18Z</time>
      </trkpt>
      <trkpt lat="42.93218" lon="0.30406">
        <ele>1274.8</ele>
        <time>2013-03-15T09:36:39Z</time>
      </trkpt>
      <trkpt lat="42.93224" lon="0.30424">
        <ele>1278.7</ele>
        <time>2013-03-15T09:37:00Z</time>
      </trkpt>
      <trkpt lat="42.93225" lon="0.30443">
        <ele>1281.1</ele>
        <time>2013-03-15T09:37:20Z</time>
      </trkpt>
      <trkpt lat="42.93228" lon="0.30457">
        <ele>1284</ele>
        <time>2013-03-15T09:37:39Z</time>
      </trkpt>
      <trkpt lat="42.93232" lon="0.30472">
        <ele>1288.3</ele>
        <time>2013-03-15T09:38:04Z</time>
      </trkpt>
      <trkpt lat="42.93235" lon="0.30487">
        <ele>1291.2</ele>
        <time>2013-03-15T09:38:24Z</time>
      </trkpt>
      <trkpt lat="42.93239" lon="0.30505">
        <ele>1294.6</ele>
        <time>2013-03-15T09:38:47Z</time>
      </trkpt>
      <trkpt lat="42.93245" lon="0.30522">
        <ele>1297</ele>
        <time>2013-03-15T09:39:09Z</time>
      </trkpt>
      <trkpt lat="42.93246" lon="0.30536">
        <ele>1297.9</ele>
        <time>2013-03-15T09:39:25Z</time>
      </trkpt>
      <trkpt lat="42.93242" lon="0.30549">
        <ele>1299.4</ele>
        <time>2013-03-15T09:39:41Z</time>
      </trkpt>
      <trkpt lat="42.93245" lon="0.30564">
        <ele>1301.3</ele>
        <time>2013-03-15T09:39:58Z</time>
      </trkpt>
      <trkpt lat="42.93248" lon="0.30579">
        <ele>1302.7</ele>
        <time>2013-03-15T09:40:17Z</time>
      </trkpt>
      <trkpt lat="42.93252" lon="0.30595">
        <ele>1305.1</ele>
        <time>2013-03-15T09:40:39Z</time>
      </trkpt>
      <trkpt lat="42.9326" lon="0.30613">
        <ele>1308</ele>
        <time>2013-03-15T09:41:01Z</time>
      </trkpt>
      <trkpt lat="42.93264" lon="0.30624">
        <ele>1310.4</ele>
        <time>2013-03-15T09:41:20Z</time>
      </trkpt>
      <trkpt lat="42.93271" lon="0.3064">
        <ele>1312.8</ele>
        <time>2013-03-15T09:41:41Z</time>
      </trkpt>
      <trkpt lat="42.93273" lon="0.30652">
        <ele>1315.7</ele>
        <time>2013-03-15T09:42:03Z</time>
      </trkpt>
      <trkpt lat="42.93273" lon="0.30667">
        <ele>1318.1</ele>
        <time>2013-03-15T09:42:23Z</time>
      </trkpt>
      <trkpt lat="42.93281" lon="0.30676">
        <ele>1321.5</ele>
        <time>2013-03-15T09:42:45Z</time>
      </trkpt>
      <trkpt lat="42.9329" lon="0.30688">
        <ele>1322.9</ele>
        <time>2013-03-15T09:43:01Z</time>
      </trkpt>
      <trkpt lat="42.93298" lon="0.30705">
        <ele>1326.8</ele>
        <time>2013-03-15T09:43:24Z</time>
      </trkpt>
      <trkpt lat="42.93303" lon="0.3072">
        <ele>1330.1</ele>
        <time>2013-03-15T09:43:47Z</time>
      </trkpt>
      <trkpt lat="42.93312" lon="0.30737">
        <ele>1334.4</ele>
        <time>2013-03-15T09:44:16Z</time>
      </trkpt>
      <trkpt lat="42.93316" lon="0.30749">
        <ele>1338.8</ele>
        <time>2013-03-15T09:44:43Z</time>
      </trkpt>
      <trkpt lat="42.9332" lon="0.30765">
        <ele>1342.6</ele>
        <time>2013-03-15T09:45:06Z</time>
      </trkpt>
      <trkpt lat="42.9332" lon="0.30781">
        <ele>1346.9</ele>
        <time>2013-03-15T09:45:32Z</time>
      </trkpt>
      <trkpt lat="42.93322" lon="0.30799">
        <ele>1350.8</ele>
        <time>2013-03-15T09:45:57Z</time>
      </trkpt>
      <trkpt lat="42.93328" lon="0.30818">
        <ele>1355.1</ele>
        <time>2013-03-15T09:46:26Z</time>
      </trkpt>
      <trkpt lat="42.93333" lon="0.30836">
        <ele>1359</ele>
        <time>2013-03-15T09:46:54Z</time>
      </trkpt>
      <trkpt lat="42.93336" lon="0.3085">
        <ele>1361.4</ele>
        <time>2013-03-15T09:47:16Z</time>
      </trkpt>
      <trkpt lat="42.93341" lon="0.30867">
        <ele>1365.7</ele>
        <time>2013-03-15T09:47:41Z</time>
      </trkpt>
      <trkpt lat="42.9334" lon="0.30883">
        <ele>1370.5</ele>
        <time>2013-03-15T09:48:09Z</time>
      </trkpt>
      <trkpt lat="42.93344" lon="0.309">
        <ele>1375.3</ele>
        <time>2013-03-15T09:48:39Z</time>
      </trkpt>
      <trkpt lat="42.93346" lon="0.30918">
        <ele>1380.1</ele>
        <time>2013-03-15T09:53:16Z</time>
      </trkpt>
      <trkpt lat="42.93353" lon="0.30933">
        <ele>1385.4</ele>
        <time>2013-03-15T09:53:42Z</time>
      </trkpt>
      <trkpt lat="42.93358" lon="0.30949">
        <ele>1389.7</ele>
        <time>2013-03-15T09:54:00Z</time>
      </trkpt>
      <trkpt lat="42.93365" lon="0.30963">
        <ele>1392.6</ele>
        <time>2013-03-15T09:54:18Z</time>
      </trkpt>
      <trkpt lat="42.93367" lon="0.30976">
        <ele>1395.5</ele>
        <time>2013-03-15T09:54:36Z</time>
      </trkpt>
      <trkpt lat="42.93367" lon="0.3099">
        <ele>1398.4</ele>
        <time>2013-03-15T09:54:53Z</time>
      </trkpt>
      <trkpt lat="42.93363" lon="0.31004">
        <ele>1401.3</ele>
        <time>2013-03-15T09:55:09Z</time>
      </trkpt>
      <trkpt lat="42.93358" lon="0.31018">
        <ele>1403.2</ele>
        <time>2013-03-15T09:55:25Z</time>
      </trkpt>
      <trkpt lat="42.93362" lon="0.31032">
        <ele>1406.1</ele>
        <time>2013-03-15T09:55:43Z</time>
      </trkpt>
      <trkpt lat="42.93363" lon="0.31045">
        <ele>1409.9</ele>
        <time>2013-03-15T09:56:03Z</time>
      </trkpt>
      <trkpt lat="42.9336" lon="0.31056">
        <ele>1411.8</ele>
        <time>2013-03-15T09:56:20Z</time>
      </trkpt>
      <trkpt lat="42.93361" lon="0.31068">
        <ele>1414.7</ele>
        <time>2013-03-15T09:56:44Z</time>
      </trkpt>
      <trkpt lat="42.93359" lon="0.31081">
        <ele>1416.2</ele>
        <time>2013-03-15T09:57:04Z</time>
      </trkpt>
      <trkpt lat="42.9336" lon="0.31093">
        <ele>1418.1</ele>
        <time>2013-03-15T09:57:22Z</time>
      </trkpt>
      <trkpt lat="42.93363" lon="0.31109">
        <ele>1421</ele>
        <time>2013-03-15T09:57:41Z</time>
      </trkpt>
      <trkpt lat="42.93367" lon="0.31124">
        <ele>1423.4</ele>
        <time>2013-03-15T09:58:04Z</time>
      </trkpt>
      <trkpt lat="42.93372" lon="0.31141">
        <ele>1427.2</ele>
        <time>2013-03-15T09:58:27Z</time>
      </trkpt>
      <trkpt lat="42.93375" lon="0.31155">
        <ele>1429.6</ele>
        <time>2013-03-15T09:58:47Z</time>
      </trkpt>
      <trkpt lat="42.93376" lon="0.3117">
        <ele>1431.1</ele>
        <time>2013-03-15T09:59:07Z</time>
      </trkpt>
      <trkpt lat="42.9338" lon="0.31191">
        <ele>1434.4</ele>
        <time>2013-03-15T09:59:34Z</time>
      </trkpt>
      <trkpt lat="42.93376" lon="0.31206">
        <ele>1437.3</ele>
        <time>2013-03-15T09:59:56Z</time>
      </trkpt>
      <trkpt lat="42.9337" lon="0.31229">
        <ele>1441.6</ele>
        <time>2013-03-15T10:00:27Z</time>
      </trkpt>
      <trkpt lat="42.93365" lon="0.31245">
        <ele>1446</ele>
        <time>2013-03-15T10:00:59Z</time>
      </trkpt>
      <trkpt lat="42.93363" lon="0.31258">
        <ele>1449.8</ele>
        <time>2013-03-15T10:01:22Z</time>
      </trkpt>
      <trkpt lat="42.93364" lon="0.31271">
        <ele>1453.2</ele>
        <time>2013-03-15T10:01:44Z</time>
      </trkpt>
      <trkpt lat="42.93368" lon="0.31286">
        <ele>1456.5</ele>
        <time>2013-03-15T10:02:09Z</time>
      </trkpt>
      <trkpt lat="42.93363" lon="0.31301">
        <ele>1459.9</ele>
        <time>2013-03-15T10:02:34Z</time>
      </trkpt>
      <trkpt lat="42.93358" lon="0.31317">
        <ele>1464.7</ele>
        <time>2013-03-15T10:03:03Z</time>
      </trkpt>
      <trkpt lat="42.93359" lon="0.31328">
        <ele>1467.6</ele>
        <time>2013-03-15T10:03:25Z</time>
      </trkpt>
      <trkpt lat="42.93354" lon="0.31343">
        <ele>1471.4</ele>
        <time>2013-03-15T10:03:56Z</time>
      </trkpt>
      <trkpt lat="42.93353" lon="0.31356">
        <ele>1476.2</ele>
        <time>2013-03-15T10:04:31Z</time>
      </trkpt>
      <trkpt lat="42.93349" lon="0.31375">
        <ele>1481.1</ele>
        <time>2013-03-15T10:05:09Z</time>
      </trkpt>
      <trkpt lat="42.93352" lon="0.3139">
        <ele>1487.3</ele>
        <time>2013-03-15T10:05:46Z</time>
      </trkpt>
      <trkpt lat="42.93349" lon="0.31404">
        <ele>1492.1</ele>
        <time>2013-03-15T10:06:14Z</time>
      </trkpt>
      <trkpt lat="42.93349" lon="0.31418">
        <ele>1496.4</ele>
        <time>2013-03-15T10:06:42Z</time>
      </trkpt>
      <trkpt lat="42.9335" lon="0.3143">
        <ele>1500.3</ele>
        <time>2013-03-15T10:07:08Z</time>
      </trkpt>
      <trkpt lat="42.93353" lon="0.31444">
        <ele>1506</ele>
        <time>2013-03-15T10:07:40Z</time>
      </trkpt>
      <trkpt lat="42.93355" lon="0.31459">
        <ele>1509.9</ele>
        <time>2013-03-15T10:08:14Z</time>
      </trkpt>
      <trkpt lat="42.93351" lon="0.31472">
        <ele>1515.2</ele>
        <time>2013-03-15T10:08:45Z</time>
      </trkpt>
      <trkpt lat="42.9335" lon="0.3149">
        <ele>1519.5</ele>
        <time>2013-03-15T10:09:17Z</time>
      </trkpt>
      <trkpt lat="42.93348" lon="0.31499">
        <ele>1522.9</ele>
        <time>2013-03-15T10:09:39Z</time>
      </trkpt>
      <trkpt lat="42.93344" lon="0.31514">
        <ele>1527.7</ele>
        <time>2013-03-15T10:10:09Z</time>
      </trkpt>
      <trkpt lat="42.93342" lon="0.31521">
        <ele>1531.5</ele>
        <time>2013-03-15T10:14:47Z</time>
      </trkpt>
      <trkpt lat="42.9334" lon="0.31538">
        <ele>1535.4</ele>
        <time>2013-03-15T10:15:11Z</time>
      </trkpt>
      <trkpt lat="42.93342" lon="0.31554">
        <ele>1540.2</ele>
        <time>2013-03-15T10:15:39Z</time>
      </trkpt>
      <trkpt lat="42.9334" lon="0.31566">
        <ele>1544</ele>
        <time>2013-03-15T10:16:01Z</time>
      </trkpt>
      <trkpt lat="42.9333" lon="0.31579">
        <ele>1548.3</ele>
        <time>2013-03-15T10:16:29Z</time>
      </trkpt>
      <trkpt lat="42.93327" lon="0.31593">
        <ele>1550.7</ele>
        <time>2013-03-15T10:16:51Z</time>
      </trkpt>
      <trkpt lat="42.93326" lon="0.31606">
        <ele>1553.6</ele>
        <time>2013-03-15T10:17:23Z</time>
      </trkpt>
      <trkpt lat="42.93326" lon="0.31617">
        <ele>1557</ele>
        <time>2013-03-15T10:17:44Z</time>
      </trkpt>
      <trkpt lat="42.93322" lon="0.31628">
        <ele>1560.4</ele>
        <time>2013-03-15T10:18:04Z</time>
      </trkpt>
      <trkpt lat="42.93314" lon="0.31643">
        <ele>1562.3</ele>
        <time>2013-03-15T10:18:28Z</time>
      </trkpt>
      <trkpt lat="42.93308" lon="0.31657">
        <ele>1564.2</ele>
        <time>2013-03-15T10:18:47Z</time>
      </trkpt>
      <trkpt lat="42.93303" lon="0.31671">
        <ele>1568.1</ele>
        <time>2013-03-15T10:19:07Z</time>
      </trkpt>
      <trkpt lat="42.93301" lon="0.31682">
        <ele>1570.4</ele>
        <time>2013-03-15T10:19:34Z</time>
      </trkpt>
      <trkpt lat="42.93301" lon="0.31696">
        <ele>1574.3</ele>
        <time>2013-03-15T10:19:59Z</time>
      </trkpt>
      <trkpt lat="42.9329" lon="0.31713">
        <ele>1578.6</ele>
        <time>2013-03-15T10:20:32Z</time>
      </trkpt>
      <trkpt lat="42.93286" lon="0.31726">
        <ele>1581</ele>
        <time>2013-03-15T10:20:57Z</time>
      </trkpt>
      <trkpt lat="42.9328" lon="0.31742">
        <ele>1585.3</ele>
        <time>2013-03-15T10:21:26Z</time>
      </trkpt>
      <trkpt lat="42.93277" lon="0.31753">
        <ele>1589.2</ele>
        <time>2013-03-15T10:21:55Z</time>
      </trkpt>
      <trkpt lat="42.93269" lon="0.31768">
        <ele>1593.5</ele>
        <time>2013-03-15T10:22:27Z</time>
      </trkpt>
      <trkpt lat="42.93266" lon="0.31788">
        <ele>1598.3</ele>
        <time>2013-03-15T10:23:09Z</time>
      </trkpt>
      <trkpt lat="42.9326" lon="0.31801">
        <ele>1603.6</ele>
        <time>2013-03-15T10:23:34Z</time>
      </trkpt>
      <trkpt lat="42.93257" lon="0.31814">
        <ele>1607</ele>
        <time>2013-03-15T10:23:55Z</time>
      </trkpt>
      <trkpt lat="42.93251" lon="0.31829">
        <ele>1609.9</ele>
        <time>2013-03-15T10:24:15Z</time>
      </trkpt>
      <trkpt lat="42.93244" lon="0.31841">
        <ele>1613.2</ele>
        <time>2013-03-15T10:24:32Z</time>
      </trkpt>
      <trkpt lat="42.93238" lon="0.3185">
        <ele>1615.2</ele>
        <time>2013-03-15T10:24:49Z</time>
      </trkpt>
      <trkpt lat="42.93231" lon="0.31861">
        <ele>1617.6</ele>
        <time>2013-03-15T10:25:06Z</time>
      </trkpt>
      <trkpt lat="42.93224" lon="0.31869">
        <ele>1618.5</ele>
        <time>2013-03-15T10:25:21Z</time>
      </trkpt>
      <trkpt lat="42.93217" lon="0.31875">
        <ele>1619</ele>
        <time>2013-03-15T10:25:46Z</time>
      </trkpt>
      <trkpt lat="42.93207" lon="0.31883">
        <ele>1620.4</ele>
        <time>2013-03-15T10:26:01Z</time>
      </trkpt>
      <trkpt lat="42.932" lon="0.3189">
        <ele>1621.9</ele>
        <time>2013-03-15T10:26:25Z</time>
      </trkpt>
      <trkpt lat="42.93193" lon="0.31896">
        <ele>1622.8</ele>
        <time>2013-03-15T10:27:36Z</time>
      </trkpt>
      <trkpt lat="42.9319" lon="0.31909">
        <ele>1623.8</ele>
        <time>2013-03-15T10:27:58Z</time>
      </trkpt>
      <trkpt lat="42.93188" lon="0.3192">
        <ele>1625.2</ele>
        <time>2013-03-15T10:28:14Z</time>
      </trkpt>
      <trkpt lat="42.93181" lon="0.3193">
        <ele>1625.7</ele>
        <time>2013-03-15T10:28:29Z</time>
      </trkpt>
      <trkpt lat="42.93175" lon="0.31936">
        <ele>1625.7</ele>
        <time>2013-03-15T10:28:59Z</time>
      </trkpt>
      <trkpt lat="42.93166" lon="0.31942">
        <ele>1625.2</ele>
        <time>2013-03-15T10:29:26Z</time>
      </trkpt>
      <trkpt lat="42.93161" lon="0.31946">
        <ele>1624.8</ele>
        <time>2013-03-15T10:33:07Z</time>
      </trkpt>
      <trkpt lat="42.93157" lon="0.3195">
        <ele>1624.8</ele>
        <time>2013-03-15T10:33:52Z</time>
      </trkpt>
      <trkpt lat="42.93148" lon="0.31956">
        <ele>1624.3</ele>
        <time>2013-03-15T10:34:05Z</time>
      </trkpt>
      <trkpt lat="42.93139" lon="0.31959">
        <ele>1623.3</ele>
        <time>2013-03-15T10:34:16Z</time>
      </trkpt>
      <trkpt lat="42.9313" lon="0.31963">
        <ele>1621.9</ele>
        <time>2013-03-15T10:34:28Z</time>
      </trkpt>
      <trkpt lat="42.9312" lon="0.31964">
        <ele>1621.4</ele>
        <time>2013-03-15T10:34:39Z</time>
      </trkpt>
      <trkpt lat="42.93111" lon="0.31963">
        <ele>1620.9</ele>
        <time>2013-03-15T10:34:49Z</time>
      </trkpt>
      <trkpt lat="42.93102" lon="0.31962">
        <ele>1619</ele>
        <time>2013-03-15T10:34:59Z</time>
      </trkpt>
      <trkpt lat="42.93092" lon="0.31963">
        <ele>1619</ele>
        <time>2013-03-15T10:35:09Z</time>
      </trkpt>
      <trkpt lat="42.93082" lon="0.31965">
        <ele>1619</ele>
        <time>2013-03-15T10:35:20Z</time>
      </trkpt>
      <trkpt lat="42.93073" lon="0.31965">
        <ele>1617.6</ele>
        <time>2013-03-15T10:35:30Z</time>
      </trkpt>
      <trkpt lat="42.93064" lon="0.31962">
        <ele>1615.2</ele>
        <time>2013-03-15T10:35:40Z</time>
      </trkpt>
      <trkpt lat="42.93055" lon="0.31958">
        <ele>1615.2</ele>
        <time>2013-03-15T10:35:51Z</time>
      </trkpt>
      <trkpt lat="42.93046" lon="0.31955">
        <ele>1612.8</ele>
        <time>2013-03-15T10:36:01Z</time>
      </trkpt>
      <trkpt lat="42.93037" lon="0.31952">
        <ele>1611.8</ele>
        <time>2013-03-15T10:36:11Z</time>
      </trkpt>
      <trkpt lat="42.93028" lon="0.31948">
        <ele>1611.3</ele>
        <time>2013-03-15T10:36:22Z</time>
      </trkpt>
      <trkpt lat="42.9302" lon="0.31948">
        <ele>1612.8</ele>
        <time>2013-03-15T10:36:36Z</time>
      </trkpt>
      <trkpt lat="42.9301" lon="0.31944">
        <ele>1613.2</ele>
        <time>2013-03-15T10:36:51Z</time>
      </trkpt>
      <trkpt lat="42.93004" lon="0.31942">
        <ele>1614.2</ele>
        <time>2013-03-15T10:37:22Z</time>
      </trkpt>
      <trkpt lat="42.92996" lon="0.31941">
        <ele>1614.7</ele>
        <time>2013-03-15T10:38:49Z</time>
      </trkpt>
      <trkpt lat="42.92986" lon="0.31933">
        <ele>1615.6</ele>
        <time>2013-03-15T10:39:17Z</time>
      </trkpt>
      <trkpt lat="42.92984" lon="0.31923">
        <ele>1613.2</ele>
        <time>2013-03-15T10:40:01Z</time>
      </trkpt>
      <trkpt lat="42.92982" lon="0.31908">
        <ele>1611.8</ele>
        <time>2013-03-15T10:40:15Z</time>
      </trkpt>
      <trkpt lat="42.92976" lon="0.31894">
        <ele>1611.8</ele>
        <time>2013-03-15T10:40:31Z</time>
      </trkpt>
      <trkpt lat="42.92967" lon="0.31885">
        <ele>1612.3</ele>
        <time>2013-03-15T10:40:53Z</time>
      </trkpt>
      <trkpt lat="42.9296" lon="0.31872">
        <ele>1611.3</ele>
        <time>2013-03-15T10:41:09Z</time>
      </trkpt>
      <trkpt lat="42.92951" lon="0.31861">
        <ele>1611.3</ele>
        <time>2013-03-15T10:41:28Z</time>
      </trkpt>
      <trkpt lat="42.92942" lon="0.31847">
        <ele>1609.9</ele>
        <time>2013-03-15T10:41:45Z</time>
      </trkpt>
      <trkpt lat="42.92929" lon="0.31838">
        <ele>1609.4</ele>
        <time>2013-03-15T10:42:48Z</time>
      </trkpt>
      <trkpt lat="42.92923" lon="0.3183">
        <ele>1609.9</ele>
        <time>2013-03-15T10:43:00Z</time>
      </trkpt>
      <trkpt lat="42.92916" lon="0.31825">
        <ele>1609.9</ele>
        <time>2013-03-15T10:43:14Z</time>
      </trkpt>
      <trkpt lat="42.92905" lon="0.31816">
        <ele>1609.4</ele>
        <time>2013-03-15T10:43:31Z</time>
      </trkpt>
      <trkpt lat="42.92893" lon="0.3181">
        <ele>1609.9</ele>
        <time>2013-03-15T10:43:46Z</time>
      </trkpt>
      <trkpt lat="42.92885" lon="0.31803">
        <ele>1611.3</ele>
        <time>2013-03-15T10:43:59Z</time>
      </trkpt>
      <trkpt lat="42.92877" lon="0.31797">
        <ele>1612.3</ele>
        <time>2013-03-15T10:44:13Z</time>
      </trkpt>
      <trkpt lat="42.92871" lon="0.31792">
        <ele>1614.7</ele>
        <time>2013-03-15T10:44:32Z</time>
      </trkpt>
      <trkpt lat="42.92863" lon="0.31787">
        <ele>1616.1</ele>
        <time>2013-03-15T10:44:49Z</time>
      </trkpt>
      <trkpt lat="42.92854" lon="0.31782">
        <ele>1618</ele>
        <time>2013-03-15T10:45:07Z</time>
      </trkpt>
      <trkpt lat="42.92846" lon="0.31779">
        <ele>1619</ele>
        <time>2013-03-15T10:45:23Z</time>
      </trkpt>
      <trkpt lat="42.92839" lon="0.3177">
        <ele>1617.6</ele>
        <time>2013-03-15T10:45:36Z</time>
      </trkpt>
      <trkpt lat="42.92828" lon="0.31763">
        <ele>1618.5</ele>
        <time>2013-03-15T10:46:05Z</time>
      </trkpt>
      <trkpt lat="42.92819" lon="0.31765">
        <ele>1618.5</ele>
        <time>2013-03-15T10:46:19Z</time>
      </trkpt>
      <trkpt lat="42.9281" lon="0.3176">
        <ele>1616.6</ele>
        <time>2013-03-15T10:46:32Z</time>
      </trkpt>
      <trkpt lat="42.92801" lon="0.31758">
        <ele>1617.1</ele>
        <time>2013-03-15T10:46:48Z</time>
      </trkpt>
      <trkpt lat="42.92791" lon="0.31755">
        <ele>1616.1</ele>
        <time>2013-03-15T10:47:03Z</time>
      </trkpt>
      <trkpt lat="42.92782" lon="0.31753">
        <ele>1616.6</ele>
        <time>2013-03-15T10:47:18Z</time>
      </trkpt>
      <trkpt lat="42.92769" lon="0.31754">
        <ele>1615.6</ele>
        <time>2013-03-15T10:47:43Z</time>
      </trkpt>
      <trkpt lat="42.92763" lon="0.3175">
        <ele>1614.7</ele>
        <time>2013-03-15T10:48:34Z</time>
      </trkpt>
      <trkpt lat="42.92756" lon="0.31739">
        <ele>1611.8</ele>
        <time>2013-03-15T10:48:50Z</time>
      </trkpt>
      <trkpt lat="42.92746" lon="0.31734">
        <ele>1611.3</ele>
        <time>2013-03-15T10:49:04Z</time>
      </trkpt>
      <trkpt lat="42.92736" lon="0.3173">
        <ele>1610.8</ele>
        <time>2013-03-15T10:49:18Z</time>
      </trkpt>
      <trkpt lat="42.92727" lon="0.31727">
        <ele>1610.8</ele>
        <time>2013-03-15T10:51:17Z</time>
      </trkpt>
      <trkpt lat="42.92718" lon="0.31721">
        <ele>1609.9</ele>
        <time>2013-03-15T10:51:29Z</time>
      </trkpt>
      <trkpt lat="42.9271" lon="0.31716">
        <ele>1610.3</ele>
        <time>2013-03-15T10:51:42Z</time>
      </trkpt>
      <trkpt lat="42.92702" lon="0.31711">
        <ele>1609.9</ele>
        <time>2013-03-15T10:51:54Z</time>
      </trkpt>
      <trkpt lat="42.92694" lon="0.31704">
        <ele>1610.3</ele>
        <time>2013-03-15T10:52:09Z</time>
      </trkpt>
      <trkpt lat="42.92685" lon="0.31702">
        <ele>1610.3</ele>
        <time>2013-03-15T10:52:22Z</time>
      </trkpt>
      <trkpt lat="42.92678" lon="0.31694">
        <ele>1610.8</ele>
        <time>2013-03-15T10:52:37Z</time>
      </trkpt>
      <trkpt lat="42.92674" lon="0.31682">
        <ele>1612.3</ele>
        <time>2013-03-15T10:52:51Z</time>
      </trkpt>
      <trkpt lat="42.92667" lon="0.3167">
        <ele>1611.8</ele>
        <time>2013-03-15T10:53:05Z</time>
      </trkpt>
      <trkpt lat="42.9266" lon="0.3166">
        <ele>1610.3</ele>
        <time>2013-03-15T10:53:19Z</time>
      </trkpt>
      <trkpt lat="42.92653" lon="0.31648">
        <ele>1610.3</ele>
        <time>2013-03-15T10:53:33Z</time>
      </trkpt>
      <trkpt lat="42.92645" lon="0.3165">
        <ele>1611.3</ele>
        <time>2013-03-15T10:53:52Z</time>
      </trkpt>
      <trkpt lat="42.92636" lon="0.31647">
        <ele>1614.2</ele>
        <time>2013-03-15T10:54:14Z</time>
      </trkpt>
      <trkpt lat="42.92628" lon="0.31643">
        <ele>1607.9</ele>
        <time>2013-03-15T10:54:31Z</time>
      </trkpt>
      <trkpt lat="42.92619" lon="0.31642">
        <ele>1617.1</ele>
        <time>2013-03-15T10:54:46Z</time>
      </trkpt>
      <trkpt lat="42.9261" lon="0.31641">
        <ele>1619</ele>
        <time>2013-03-15T10:55:04Z</time>
      </trkpt>
      <trkpt lat="42.92602" lon="0.31638">
        <ele>1620</ele>
        <time>2013-03-15T10:55:23Z</time>
      </trkpt>
      <trkpt lat="42.92593" lon="0.31634">
        <ele>1621.4</ele>
        <time>2013-03-15T10:55:39Z</time>
      </trkpt>
      <trkpt lat="42.92585" lon="0.31628">
        <ele>1622.8</ele>
        <time>2013-03-15T10:55:57Z</time>
      </trkpt>
      <trkpt lat="42.92577" lon="0.31623">
        <ele>1624.8</ele>
        <time>2013-03-15T10:56:14Z</time>
      </trkpt>
      <trkpt lat="42.92569" lon="0.31618">
        <ele>1627.7</ele>
        <time>2013-03-15T10:56:36Z</time>
      </trkpt>
      <trkpt lat="42.92561" lon="0.3162">
        <ele>1630.5</ele>
        <time>2013-03-15T10:56:56Z</time>
      </trkpt>
      <trkpt lat="42.92553" lon="0.3162">
        <ele>1632.9</ele>
        <time>2013-03-15T10:57:13Z</time>
      </trkpt>
      <trkpt lat="42.92544" lon="0.31619">
        <ele>1635.3</ele>
        <time>2013-03-15T10:57:29Z</time>
      </trkpt>
      <trkpt lat="42.92537" lon="0.31612">
        <ele>1637.3</ele>
        <time>2013-03-15T10:57:46Z</time>
      </trkpt>
      <trkpt lat="42.92529" lon="0.31605">
        <ele>1638.7</ele>
        <time>2013-03-15T10:58:02Z</time>
      </trkpt>
      <trkpt lat="42.92522" lon="0.31595">
        <ele>1639.7</ele>
        <time>2013-03-15T10:58:17Z</time>
      </trkpt>
      <trkpt lat="42.92516" lon="0.31588">
        <ele>1640.6</ele>
        <time>2013-03-15T10:58:34Z</time>
      </trkpt>
      <trkpt lat="42.92507" lon="0.31586">
        <ele>1643</ele>
        <time>2013-03-15T10:58:53Z</time>
      </trkpt>
      <trkpt lat="42.92499" lon="0.31579">
        <ele>1644.9</ele>
        <time>2013-03-15T10:59:10Z</time>
      </trkpt>
      <trkpt lat="42.92492" lon="0.31569">
        <ele>1647.4</ele>
        <time>2013-03-15T10:59:26Z</time>
      </trkpt>
      <trkpt lat="42.92486" lon="0.31561">
        <ele>1648.3</ele>
        <time>2013-03-15T10:59:40Z</time>
      </trkpt>
      <trkpt lat="42.92481" lon="0.31552">
        <ele>1651.2</ele>
        <time>2013-03-15T10:59:57Z</time>
      </trkpt>
      <trkpt lat="42.92473" lon="0.31547">
        <ele>1653.1</ele>
        <time>2013-03-15T11:00:19Z</time>
      </trkpt>
      <trkpt lat="42.92469" lon="0.31545">
        <ele>1652.6</ele>
        <time>2013-03-15T11:03:05Z</time>
      </trkpt>
      <trkpt lat="42.92461" lon="0.31536">
        <ele>1651.7</ele>
        <time>2013-03-15T11:03:17Z</time>
      </trkpt>
      <trkpt lat="42.92456" lon="0.31532">
        <ele>1651.7</ele>
        <time>2013-03-15T11:03:39Z</time>
      </trkpt>
      <trkpt lat="42.92451" lon="0.31526">
        <ele>1651.7</ele>
        <time>2013-03-15T11:04:11Z</time>
      </trkpt>
      <trkpt lat="42.92444" lon="0.31519">
        <ele>1652.2</ele>
        <time>2013-03-15T11:04:23Z</time>
      </trkpt>
      <trkpt lat="42.92436" lon="0.31515">
        <ele>1654.6</ele>
        <time>2013-03-15T11:04:40Z</time>
      </trkpt>
      <trkpt lat="42.92428" lon="0.31509">
        <ele>1656</ele>
        <time>2013-03-15T11:04:54Z</time>
      </trkpt>
      <trkpt lat="42.92421" lon="0.31503">
        <ele>1657.9</ele>
        <time>2013-03-15T11:05:07Z</time>
      </trkpt>
      <trkpt lat="42.92412" lon="0.31502">
        <ele>1659.8</ele>
        <time>2013-03-15T11:05:22Z</time>
      </trkpt>
      <trkpt lat="42.92404" lon="0.315">
        <ele>1662.7</ele>
        <time>2013-03-15T11:05:41Z</time>
      </trkpt>
      <trkpt lat="42.92396" lon="0.31493">
        <ele>1665.1</ele>
        <time>2013-03-15T11:06:00Z</time>
      </trkpt>
      <trkpt lat="42.9239" lon="0.31501">
        <ele>1667.1</ele>
        <time>2013-03-15T11:06:14Z</time>
      </trkpt>
      <trkpt lat="42.92384" lon="0.31498">
        <ele>1669.5</ele>
        <time>2013-03-15T11:06:36Z</time>
      </trkpt>
      <trkpt lat="42.92375" lon="0.3149">
        <ele>1671.9</ele>
        <time>2013-03-15T11:06:51Z</time>
      </trkpt>
      <trkpt lat="42.9237" lon="0.31499">
        <ele>1674.3</ele>
        <time>2013-03-15T11:07:08Z</time>
      </trkpt>
      <trkpt lat="42.92363" lon="0.31492">
        <ele>1677.6</ele>
        <time>2013-03-15T11:07:32Z</time>
      </trkpt>
      <trkpt lat="42.92354" lon="0.31499">
        <ele>1682</ele>
        <time>2013-03-15T11:07:58Z</time>
      </trkpt>
      <trkpt lat="42.92345" lon="0.3149">
        <ele>1684.8</ele>
        <time>2013-03-15T11:08:21Z</time>
      </trkpt>
      <trkpt lat="42.92338" lon="0.31488">
        <ele>1686.8</ele>
        <time>2013-03-15T11:08:39Z</time>
      </trkpt>
      <trkpt lat="42.9233" lon="0.3149">
        <ele>1690.1</ele>
        <time>2013-03-15T11:09:02Z</time>
      </trkpt>
      <trkpt lat="42.92321" lon="0.31485">
        <ele>1692.5</ele>
        <time>2013-03-15T11:09:19Z</time>
      </trkpt>
      <trkpt lat="42.92312" lon="0.31484">
        <ele>1694.5</ele>
        <time>2013-03-15T11:09:34Z</time>
      </trkpt>
      <trkpt lat="42.92305" lon="0.31485">
        <ele>1697.3</ele>
        <time>2013-03-15T11:09:53Z</time>
      </trkpt>
      <trkpt lat="42.92295" lon="0.31488">
        <ele>1701.7</ele>
        <time>2013-03-15T11:10:19Z</time>
      </trkpt>
      <trkpt lat="42.92287" lon="0.31483">
        <ele>1704.1</ele>
        <time>2013-03-15T11:10:35Z</time>
      </trkpt>
      <trkpt lat="42.9228" lon="0.31477">
        <ele>1705</ele>
        <time>2013-03-15T11:10:50Z</time>
      </trkpt>
      <trkpt lat="42.92271" lon="0.31476">
        <ele>1707.4</ele>
        <time>2013-03-15T11:11:05Z</time>
      </trkpt>
      <trkpt lat="42.92266" lon="0.31476">
        <ele>1707.9</ele>
        <time>2013-03-15T11:11:52Z</time>
      </trkpt>
      <trkpt lat="42.92257" lon="0.31471">
        <ele>1709.4</ele>
        <time>2013-03-15T11:12:05Z</time>
      </trkpt>
      <trkpt lat="42.9225" lon="0.31465">
        <ele>1709.8</ele>
        <time>2013-03-15T11:12:17Z</time>
      </trkpt>
      <trkpt lat="42.92242" lon="0.31457">
        <ele>1712.7</ele>
        <time>2013-03-15T11:12:33Z</time>
      </trkpt>
      <trkpt lat="42.92233" lon="0.31452">
        <ele>1713.7</ele>
        <time>2013-03-15T11:12:48Z</time>
      </trkpt>
      <trkpt lat="42.92227" lon="0.31446">
        <ele>1716.6</ele>
        <time>2013-03-15T11:13:04Z</time>
      </trkpt>
      <trkpt lat="42.92219" lon="0.31439">
        <ele>1718.5</ele>
        <time>2013-03-15T11:13:20Z</time>
      </trkpt>
      <trkpt lat="42.92212" lon="0.31433">
        <ele>1721.9</ele>
        <time>2013-03-15T11:13:40Z</time>
      </trkpt>
      <trkpt lat="42.92205" lon="0.31425">
        <ele>1725.2</ele>
        <time>2013-03-15T11:14:03Z</time>
      </trkpt>
      <trkpt lat="42.922" lon="0.31414">
        <ele>1731.5</ele>
        <time>2013-03-15T11:14:28Z</time>
      </trkpt>
      <trkpt lat="42.92192" lon="0.3141">
        <ele>1731.5</ele>
        <time>2013-03-15T11:14:48Z</time>
      </trkpt>
      <trkpt lat="42.92183" lon="0.31408">
        <ele>1732.4</ele>
        <time>2013-03-15T11:15:01Z</time>
      </trkpt>
      <trkpt lat="42.92173" lon="0.31408">
        <ele>1734.4</ele>
        <time>2013-03-15T11:15:15Z</time>
      </trkpt>
      <trkpt lat="42.92164" lon="0.31406">
        <ele>1735.8</ele>
        <time>2013-03-15T11:15:29Z</time>
      </trkpt>
      <trkpt lat="42.92155" lon="0.31405">
        <ele>1737.7</ele>
        <time>2013-03-15T11:15:44Z</time>
      </trkpt>
      <trkpt lat="42.92147" lon="0.31403">
        <ele>1738.7</ele>
        <time>2013-03-15T11:15:57Z</time>
      </trkpt>
      <trkpt lat="42.92137" lon="0.31401">
        <ele>1740.1</ele>
        <time>2013-03-15T11:16:10Z</time>
      </trkpt>
      <trkpt lat="42.92129" lon="0.31398">
        <ele>1743</ele>
        <time>2013-03-15T11:16:25Z</time>
      </trkpt>
      <trkpt lat="42.9212" lon="0.31395">
        <ele>1743.5</ele>
        <time>2013-03-15T11:16:38Z</time>
      </trkpt>
      <trkpt lat="42.92111" lon="0.31392">
        <ele>1744.9</ele>
        <time>2013-03-15T11:16:52Z</time>
      </trkpt>
      <trkpt lat="42.92102" lon="0.31388">
        <ele>1745.9</ele>
        <time>2013-03-15T11:17:05Z</time>
      </trkpt>
      <trkpt lat="42.92093" lon="0.31384">
        <ele>1747.3</ele>
        <time>2013-03-15T11:17:18Z</time>
      </trkpt>
      <trkpt lat="42.92085" lon="0.3138">
        <ele>1747.8</ele>
        <time>2013-03-15T11:17:31Z</time>
      </trkpt>
      <trkpt lat="42.92075" lon="0.31376">
        <ele>1749.7</ele>
        <time>2013-03-15T11:17:45Z</time>
      </trkpt>
      <trkpt lat="42.92067" lon="0.31373">
        <ele>1751.2</ele>
        <time>2013-03-15T11:17:59Z</time>
      </trkpt>
      <trkpt lat="42.92058" lon="0.3137">
        <ele>1752.6</ele>
        <time>2013-03-15T11:18:13Z</time>
      </trkpt>
      <trkpt lat="42.9205" lon="0.31366">
        <ele>1753.6</ele>
        <time>2013-03-15T11:18:25Z</time>
      </trkpt>
      <trkpt lat="42.92042" lon="0.3136">
        <ele>1753.6</ele>
        <time>2013-03-15T11:18:37Z</time>
      </trkpt>
      <trkpt lat="42.92035" lon="0.31357">
        <ele>1754.5</ele>
        <time>2013-03-15T11:18:51Z</time>
      </trkpt>
      <trkpt lat="42.92025" lon="0.31354">
        <ele>1755.5</ele>
        <time>2013-03-15T11:19:08Z</time>
      </trkpt>
      <trkpt lat="42.92018" lon="0.31354">
        <ele>1755</ele>
        <time>2013-03-15T11:21:07Z</time>
      </trkpt>
      <trkpt lat="42.92017" lon="0.31351">
        <ele>1752.6</ele>
        <time>2013-03-15T11:22:09Z</time>
      </trkpt>
      <trkpt lat="42.92017" lon="0.3135">
        <ele>1779.5</ele>
        <time>2013-03-15T11:24:32Z</time>
      </trkpt>
      <trkpt lat="42.92009" lon="0.31343">
        <ele>1777.1</ele>
        <time>2013-03-15T11:26:29Z</time>
      </trkpt>
      <trkpt lat="42.92001" lon="0.31337">
        <ele>1776.7</ele>
        <time>2013-03-15T11:26:42Z</time>
      </trkpt>
      <trkpt lat="42.91993" lon="0.31331">
        <ele>1775.7</ele>
        <time>2013-03-15T11:26:54Z</time>
      </trkpt>
      <trkpt lat="42.91985" lon="0.31327">
        <ele>1775.7</ele>
        <time>2013-03-15T11:27:06Z</time>
      </trkpt>
      <trkpt lat="42.91976" lon="0.31323">
        <ele>1774.7</ele>
        <time>2013-03-15T11:27:17Z</time>
      </trkpt>
      <trkpt lat="42.91967" lon="0.31321">
        <ele>1775.2</ele>
        <time>2013-03-15T11:27:29Z</time>
      </trkpt>
      <trkpt lat="42.91958" lon="0.31317">
        <ele>1773.8</ele>
        <time>2013-03-15T11:27:39Z</time>
      </trkpt>
      <trkpt lat="42.91948" lon="0.31316">
        <ele>1774.7</ele>
        <time>2013-03-15T11:27:53Z</time>
      </trkpt>
      <trkpt lat="42.91938" lon="0.31312">
        <ele>1774.2</ele>
        <time>2013-03-15T11:28:06Z</time>
      </trkpt>
      <trkpt lat="42.91926" lon="0.31307">
        <ele>1773.8</ele>
        <time>2013-03-15T11:28:23Z</time>
      </trkpt>
      <trkpt lat="42.91916" lon="0.31307">
        <ele>1774.2</ele>
        <time>2013-03-15T11:28:37Z</time>
      </trkpt>
      <trkpt lat="42.91903" lon="0.31308">
        <ele>1774.2</ele>
        <time>2013-03-15T11:30:04Z</time>
      </trkpt>
      <trkpt lat="42.91897" lon="0.31297">
        <ele>1772.3</ele>
        <time>2013-03-15T11:30:16Z</time>
      </trkpt>
      <trkpt lat="42.9189" lon="0.31291">
        <ele>1770.4</ele>
        <time>2013-03-15T11:30:28Z</time>
      </trkpt>
      <trkpt lat="42.91884" lon="0.31286">
        <ele>1769.4</ele>
        <time>2013-03-15T11:31:20Z</time>
      </trkpt>
      <trkpt lat="42.91877" lon="0.31278">
        <ele>1767</ele>
        <time>2013-03-15T11:32:23Z</time>
      </trkpt>
      <trkpt lat="42.91869" lon="0.31272">
        <ele>1765.6</ele>
        <time>2013-03-15T11:32:33Z</time>
      </trkpt>
      <trkpt lat="42.9186" lon="0.31267">
        <ele>1763.7</ele>
        <time>2013-03-15T11:32:45Z</time>
      </trkpt>
      <trkpt lat="42.91852" lon="0.31263">
        <ele>1760.8</ele>
        <time>2013-03-15T11:32:57Z</time>
      </trkpt>
      <trkpt lat="42.91843" lon="0.31266">
        <ele>1759.3</ele>
        <time>2013-03-15T11:33:09Z</time>
      </trkpt>
      <trkpt lat="42.91834" lon="0.31274">
        <ele>1757.4</ele>
        <time>2013-03-15T11:33:20Z</time>
      </trkpt>
      <trkpt lat="42.91825" lon="0.31277">
        <ele>1757.9</ele>
        <time>2013-03-15T11:33:32Z</time>
      </trkpt>
      <trkpt lat="42.91817" lon="0.31283">
        <ele>1756</ele>
        <time>2013-03-15T11:33:54Z</time>
      </trkpt>
      <trkpt lat="42.9181" lon="0.31287">
        <ele>1754.5</ele>
        <time>2013-03-15T11:34:09Z</time>
      </trkpt>
      <trkpt lat="42.91803" lon="0.3129">
        <ele>1751.2</ele>
        <time>2013-03-15T11:34:35Z</time>
      </trkpt>
      <trkpt lat="42.91795" lon="0.31302">
        <ele>1751.2</ele>
        <time>2013-03-15T11:34:47Z</time>
      </trkpt>
      <trkpt lat="42.91787" lon="0.31305">
        <ele>1748.3</ele>
        <time>2013-03-15T11:34:58Z</time>
      </trkpt>
      <trkpt lat="42.91779" lon="0.31304">
        <ele>1743</ele>
        <time>2013-03-15T11:35:19Z</time>
      </trkpt>
      <trkpt lat="42.9177" lon="0.31306">
        <ele>1738.7</ele>
        <time>2013-03-15T11:35:31Z</time>
      </trkpt>
      <trkpt lat="42.91762" lon="0.31308">
        <ele>1733.9</ele>
        <time>2013-03-15T11:35:52Z</time>
      </trkpt>
      <trkpt lat="42.91752" lon="0.31306">
        <ele>1729.1</ele>
        <time>2013-03-15T11:36:03Z</time>
      </trkpt>
      <trkpt lat="42.91746" lon="0.31302">
        <ele>1724.3</ele>
        <time>2013-03-15T11:39:04Z</time>
      </trkpt>
      <trkpt lat="42.91737" lon="0.31303">
        <ele>1720.9</ele>
        <time>2013-03-15T11:39:17Z</time>
      </trkpt>
      <trkpt lat="42.91728" lon="0.31299">
        <ele>1717.1</ele>
        <time>2013-03-15T11:39:27Z</time>
      </trkpt>
      <trkpt lat="42.9172" lon="0.31295">
        <ele>1713.2</ele>
        <time>2013-03-15T11:39:37Z</time>
      </trkpt>
      <trkpt lat="42.91711" lon="0.3129">
        <ele>1709.4</ele>
        <time>2013-03-15T11:39:47Z</time>
      </trkpt>
      <trkpt lat="42.91703" lon="0.31285">
        <ele>1706.5</ele>
        <time>2013-03-15T11:39:57Z</time>
      </trkpt>
      <trkpt lat="42.91694" lon="0.31279">
        <ele>1703.6</ele>
        <time>2013-03-15T11:40:07Z</time>
      </trkpt>
      <trkpt lat="42.91685" lon="0.31275">
        <ele>1700.7</ele>
        <time>2013-03-15T11:40:17Z</time>
      </trkpt>
      <trkpt lat="42.91676" lon="0.31269">
        <ele>1698.3</ele>
        <time>2013-03-15T11:40:27Z</time>
      </trkpt>
      <trkpt lat="42.91667" lon="0.31264">
        <ele>1696.4</ele>
        <time>2013-03-15T11:40:36Z</time>
      </trkpt>
      <trkpt lat="42.9166" lon="0.31259">
        <ele>1694</ele>
        <time>2013-03-15T11:40:58Z</time>
      </trkpt>
      <trkpt lat="42.91656" lon="0.31248">
        <ele>1692.1</ele>
        <time>2013-03-15T11:41:10Z</time>
      </trkpt>
      <trkpt lat="42.91649" lon="0.31242">
        <ele>1689.7</ele>
        <time>2013-03-15T11:41:22Z</time>
      </trkpt>
      <trkpt lat="42.91641" lon="0.31234">
        <ele>1687.2</ele>
        <time>2013-03-15T11:41:36Z</time>
      </trkpt>
      <trkpt lat="42.91634" lon="0.3123">
        <ele>1684.8</ele>
        <time>2013-03-15T11:41:50Z</time>
      </trkpt>
      <trkpt lat="42.91625" lon="0.31224">
        <ele>1682.4</ele>
        <time>2013-03-15T11:42:04Z</time>
      </trkpt>
      <trkpt lat="42.91617" lon="0.31222">
        <ele>1679.1</ele>
        <time>2013-03-15T11:42:18Z</time>
      </trkpt>
      <trkpt lat="42.91609" lon="0.31216">
        <ele>1677.2</ele>
        <time>2013-03-15T11:42:32Z</time>
      </trkpt>
      <trkpt lat="42.91602" lon="0.31208">
        <ele>1674.3</ele>
        <time>2013-03-15T11:42:45Z</time>
      </trkpt>
      <trkpt lat="42.91594" lon="0.31202">
        <ele>1671.4</ele>
        <time>2013-03-15T11:42:59Z</time>
      </trkpt>
      <trkpt lat="42.91587" lon="0.31202">
        <ele>1668.5</ele>
        <time>2013-03-15T11:43:25Z</time>
      </trkpt>
      <trkpt lat="42.9158" lon="0.31199">
        <ele>1666.6</ele>
        <time>2013-03-15T11:45:27Z</time>
      </trkpt>
      <trkpt lat="42.91575" lon="0.31192">
        <ele>1664.2</ele>
        <time>2013-03-15T11:45:56Z</time>
      </trkpt>
      <trkpt lat="42.9157" lon="0.31179">
        <ele>1660.3</ele>
        <time>2013-03-15T11:46:09Z</time>
      </trkpt>
      <trkpt lat="42.91564" lon="0.31169">
        <ele>1657.4</ele>
        <time>2013-03-15T11:46:19Z</time>
      </trkpt>
      <trkpt lat="42.91558" lon="0.3116">
        <ele>1654.6</ele>
        <time>2013-03-15T11:46:30Z</time>
      </trkpt>
      <trkpt lat="42.9155" lon="0.31155">
        <ele>1652.2</ele>
        <time>2013-03-15T11:46:40Z</time>
      </trkpt>
      <trkpt lat="42.91543" lon="0.3115">
        <ele>1649.8</ele>
        <time>2013-03-15T11:46:50Z</time>
      </trkpt>
      <trkpt lat="42.91535" lon="0.31143">
        <ele>1646.4</ele>
        <time>2013-03-15T11:47:01Z</time>
      </trkpt>
      <trkpt lat="42.91527" lon="0.31138">
        <ele>1644.5</ele>
        <time>2013-03-15T11:47:11Z</time>
      </trkpt>
      <trkpt lat="42.91519" lon="0.31132">
        <ele>1641.6</ele>
        <time>2013-03-15T11:47:23Z</time>
      </trkpt>
      <trkpt lat="42.91509" lon="0.31128">
        <ele>1638.7</ele>
        <time>2013-03-15T11:47:36Z</time>
      </trkpt>
      <trkpt lat="42.91499" lon="0.31123">
        <ele>1635.8</ele>
        <time>2013-03-15T11:48:02Z</time>
      </trkpt>
      <trkpt lat="42.9149" lon="0.31121">
        <ele>1632.9</ele>
        <time>2013-03-15T11:48:11Z</time>
      </trkpt>
      <trkpt lat="42.91481" lon="0.31117">
        <ele>1632</ele>
        <time>2013-03-15T11:48:20Z</time>
      </trkpt>
      <trkpt lat="42.91472" lon="0.31111">
        <ele>1630.5</ele>
        <time>2013-03-15T11:48:29Z</time>
      </trkpt>
      <trkpt lat="42.91465" lon="0.31103">
        <ele>1629.6</ele>
        <time>2013-03-15T11:48:56Z</time>
      </trkpt>
      <trkpt lat="42.91457" lon="0.31096">
        <ele>1628.6</ele>
        <time>2013-03-15T11:49:11Z</time>
      </trkpt>
      <trkpt lat="42.91452" lon="0.31087">
        <ele>1627.7</ele>
        <time>2013-03-15T11:49:22Z</time>
      </trkpt>
      <trkpt lat="42.91446" lon="0.31081">
        <ele>1627.2</ele>
        <time>2013-03-15T11:49:35Z</time>
      </trkpt>
      <trkpt lat="42.91437" lon="0.31076">
        <ele>1626.2</ele>
        <time>2013-03-15T11:49:47Z</time>
      </trkpt>
      <trkpt lat="42.91429" lon="0.3107">
        <ele>1625.2</ele>
        <time>2013-03-15T11:50:00Z</time>
      </trkpt>
      <trkpt lat="42.91424" lon="0.31062">
        <ele>1623.8</ele>
        <time>2013-03-15T11:50:12Z</time>
      </trkpt>
      <trkpt lat="42.91417" lon="0.31056">
        <ele>1622.4</ele>
        <time>2013-03-15T11:50:23Z</time>
      </trkpt>
      <trkpt lat="42.9141" lon="0.31049">
        <ele>1620.9</ele>
        <time>2013-03-15T11:50:37Z</time>
      </trkpt>
      <trkpt lat="42.91401" lon="0.31042">
        <ele>1620.4</ele>
        <time>2013-03-15T11:50:50Z</time>
      </trkpt>
      <trkpt lat="42.91397" lon="0.31032">
        <ele>1619</ele>
        <time>2013-03-15T11:51:40Z</time>
      </trkpt>
      <trkpt lat="42.91389" lon="0.31029">
        <ele>1617.6</ele>
        <time>2013-03-15T11:51:59Z</time>
      </trkpt>
      <trkpt lat="42.91381" lon="0.31021">
        <ele>1615.2</ele>
        <time>2013-03-15T11:52:16Z</time>
      </trkpt>
      <trkpt lat="42.91375" lon="0.31012">
        <ele>1613.7</ele>
        <time>2013-03-15T11:52:27Z</time>
      </trkpt>
      <trkpt lat="42.91366" lon="0.31008">
        <ele>1613.2</ele>
        <time>2013-03-15T11:52:38Z</time>
      </trkpt>
      <trkpt lat="42.91359" lon="0.31">
        <ele>1612.3</ele>
        <time>2013-03-15T11:52:50Z</time>
      </trkpt>
      <trkpt lat="42.91354" lon="0.30989">
        <ele>1610.3</ele>
        <time>2013-03-15T11:53:00Z</time>
      </trkpt>
      <trkpt lat="42.91349" lon="0.30979">
        <ele>1609.9</ele>
        <time>2013-03-15T11:53:10Z</time>
      </trkpt>
      <trkpt lat="42.91344" lon="0.3097">
        <ele>1610.3</ele>
        <time>2013-03-15T11:53:30Z</time>
      </trkpt>
      <trkpt lat="42.91339" lon="0.3096">
        <ele>1610.3</ele>
        <time>2013-03-15T11:53:46Z</time>
      </trkpt>
      <trkpt lat="42.91333" lon="0.30952">
        <ele>1609.4</ele>
        <time>2013-03-15T11:54:08Z</time>
      </trkpt>
      <trkpt lat="42.91324" lon="0.30947">
        <ele>1608.9</ele>
        <time>2013-03-15T11:54:23Z</time>
      </trkpt>
      <trkpt lat="42.91316" lon="0.3094">
        <ele>1608.9</ele>
        <time>2013-03-15T11:54:34Z</time>
      </trkpt>
      <trkpt lat="42.91309" lon="0.30934">
        <ele>1608.9</ele>
        <time>2013-03-15T11:54:45Z</time>
      </trkpt>
      <trkpt lat="42.91302" lon="0.30925">
        <ele>1607.9</ele>
        <time>2013-03-15T11:54:57Z</time>
      </trkpt>
      <trkpt lat="42.91294" lon="0.30922">
        <ele>1611.8</ele>
        <time>2013-03-15T11:55:10Z</time>
      </trkpt>
      <trkpt lat="42.91286" lon="0.3092">
        <ele>1613.2</ele>
        <time>2013-03-15T11:55:37Z</time>
      </trkpt>
      <trkpt lat="42.91278" lon="0.30916">
        <ele>1615.2</ele>
        <time>2013-03-15T11:55:55Z</time>
      </trkpt>
      <trkpt lat="42.91269" lon="0.30917">
        <ele>1618.5</ele>
        <time>2013-03-15T11:56:12Z</time>
      </trkpt>
      <trkpt lat="42.91264" lon="0.30907">
        <ele>1621.4</ele>
        <time>2013-03-15T11:56:28Z</time>
      </trkpt>
      <trkpt lat="42.91258" lon="0.30907">
        <ele>1624.3</ele>
        <time>2013-03-15T11:56:43Z</time>
      </trkpt>
      <trkpt lat="42.91251" lon="0.30898">
        <ele>1627.7</ele>
        <time>2013-03-15T11:57:00Z</time>
      </trkpt>
      <trkpt lat="42.91243" lon="0.30893">
        <ele>1630.5</ele>
        <time>2013-03-15T11:57:18Z</time>
      </trkpt>
      <trkpt lat="42.91239" lon="0.30883">
        <ele>1633.9</ele>
        <time>2013-03-15T11:57:37Z</time>
      </trkpt>
      <trkpt lat="42.91232" lon="0.30882">
        <ele>1636.3</ele>
        <time>2013-03-15T11:58:18Z</time>
      </trkpt>
      <trkpt lat="42.91227" lon="0.30871">
        <ele>1639.7</ele>
        <time>2013-03-15T11:58:35Z</time>
      </trkpt>
      <trkpt lat="42.91219" lon="0.30863">
        <ele>1642.6</ele>
        <time>2013-03-15T11:58:50Z</time>
      </trkpt>
      <trkpt lat="42.91213" lon="0.30853">
        <ele>1645.4</ele>
        <time>2013-03-15T11:59:04Z</time>
      </trkpt>
      <trkpt lat="42.91206" lon="0.30848">
        <ele>1646.9</ele>
        <time>2013-03-15T11:59:17Z</time>
      </trkpt>
      <trkpt lat="42.91199" lon="0.30841">
        <ele>1647.8</ele>
        <time>2013-03-15T11:59:29Z</time>
      </trkpt>
      <trkpt lat="42.91192" lon="0.30833">
        <ele>1647.8</ele>
        <time>2013-03-15T11:59:39Z</time>
      </trkpt>
      <trkpt lat="42.91186" lon="0.30824">
        <ele>1649.3</ele>
        <time>2013-03-15T11:59:50Z</time>
      </trkpt>
      <trkpt lat="42.91179" lon="0.30814">
        <ele>1650.2</ele>
        <time>2013-03-15T12:00:02Z</time>
      </trkpt>
      <trkpt lat="42.91173" lon="0.30805">
        <ele>1651.7</ele>
        <time>2013-03-15T12:00:16Z</time>
      </trkpt>
      <trkpt lat="42.91166" lon="0.30798">
        <ele>1653.6</ele>
        <time>2013-03-15T12:00:29Z</time>
      </trkpt>
      <trkpt lat="42.91158" lon="0.30791">
        <ele>1655.1</ele>
        <time>2013-03-15T12:00:41Z</time>
      </trkpt>
      <trkpt lat="42.91151" lon="0.30787">
        <ele>1655.1</ele>
        <time>2013-03-15T12:00:52Z</time>
      </trkpt>
      <trkpt lat="42.91142" lon="0.30783">
        <ele>1655.1</ele>
        <time>2013-03-15T12:01:02Z</time>
      </trkpt>
      <trkpt lat="42.91132" lon="0.30779">
        <ele>1655.1</ele>
        <time>2013-03-15T12:01:12Z</time>
      </trkpt>
      <trkpt lat="42.91124" lon="0.30775">
        <ele>1654.6</ele>
        <time>2013-03-15T12:01:22Z</time>
      </trkpt>
      <trkpt lat="42.91116" lon="0.30771">
        <ele>1654.6</ele>
        <time>2013-03-15T12:01:32Z</time>
      </trkpt>
      <trkpt lat="42.91107" lon="0.30765">
        <ele>1654.6</ele>
        <time>2013-03-15T12:01:42Z</time>
      </trkpt>
      <trkpt lat="42.91099" lon="0.3076">
        <ele>1655.1</ele>
        <time>2013-03-15T12:01:52Z</time>
      </trkpt>
      <trkpt lat="42.91091" lon="0.30757">
        <ele>1655.5</ele>
        <time>2013-03-15T12:02:03Z</time>
      </trkpt>
      <trkpt lat="42.91081" lon="0.30753">
        <ele>1655.5</ele>
        <time>2013-03-15T12:02:15Z</time>
      </trkpt>
      <trkpt lat="42.91073" lon="0.30749">
        <ele>1655.5</ele>
        <time>2013-03-15T12:02:25Z</time>
      </trkpt>
      <trkpt lat="42.91063" lon="0.30745">
        <ele>1655.1</ele>
        <time>2013-03-15T12:02:35Z</time>
      </trkpt>
      <trkpt lat="42.91054" lon="0.30743">
        <ele>1655.1</ele>
        <time>2013-03-15T12:02:45Z</time>
      </trkpt>
      <trkpt lat="42.91045" lon="0.30739">
        <ele>1653.6</ele>
        <time>2013-03-15T12:02:55Z</time>
      </trkpt>
      <trkpt lat="42.91035" lon="0.30737">
        <ele>1652.6</ele>
        <time>2013-03-15T12:03:07Z</time>
      </trkpt>
      <trkpt lat="42.91026" lon="0.30736">
        <ele>1653.1</ele>
        <time>2013-03-15T12:03:18Z</time>
      </trkpt>
      <trkpt lat="42.91016" lon="0.30734">
        <ele>1650.7</ele>
        <time>2013-03-15T12:03:29Z</time>
      </trkpt>
      <trkpt lat="42.91007" lon="0.3073">
        <ele>1650.2</ele>
        <time>2013-03-15T12:04:10Z</time>
      </trkpt>
      <trkpt lat="42.90998" lon="0.30728">
        <ele>1648.8</ele>
        <time>2013-03-15T12:04:21Z</time>
      </trkpt>
      <trkpt lat="42.90989" lon="0.30733">
        <ele>1647.4</ele>
        <time>2013-03-15T12:04:31Z</time>
      </trkpt>
      <trkpt lat="42.90979" lon="0.30733">
        <ele>1646.4</ele>
        <time>2013-03-15T12:04:47Z</time>
      </trkpt>
      <trkpt lat="42.9097" lon="0.30732">
        <ele>1644.5</ele>
        <time>2013-03-15T12:04:58Z</time>
      </trkpt>
      <trkpt lat="42.9096" lon="0.30737">
        <ele>1643.5</ele>
        <time>2013-03-15T12:05:10Z</time>
      </trkpt>
      <trkpt lat="42.90951" lon="0.30737">
        <ele>1641.1</ele>
        <time>2013-03-15T12:05:22Z</time>
      </trkpt>
      <trkpt lat="42.90942" lon="0.30735">
        <ele>1639.7</ele>
        <time>2013-03-15T12:05:32Z</time>
      </trkpt>
      <trkpt lat="42.90933" lon="0.30736">
        <ele>1636.8</ele>
        <time>2013-03-15T12:05:44Z</time>
      </trkpt>
      <trkpt lat="42.90924" lon="0.30734">
        <ele>1634.9</ele>
        <time>2013-03-15T12:05:56Z</time>
      </trkpt>
      <trkpt lat="42.90915" lon="0.30728">
        <ele>1632.9</ele>
        <time>2013-03-15T12:06:46Z</time>
      </trkpt>
      <trkpt lat="42.90906" lon="0.30725">
        <ele>1630.5</ele>
        <time>2013-03-15T12:06:57Z</time>
      </trkpt>
      <trkpt lat="42.90897" lon="0.30723">
        <ele>1628.6</ele>
        <time>2013-03-15T12:07:07Z</time>
      </trkpt>
      <trkpt lat="42.90887" lon="0.30721">
        <ele>1625.7</ele>
        <time>2013-03-15T12:07:17Z</time>
      </trkpt>
      <trkpt lat="42.90878" lon="0.30719">
        <ele>1624.8</ele>
        <time>2013-03-15T12:07:27Z</time>
      </trkpt>
      <trkpt lat="42.90869" lon="0.3072">
        <ele>1623.8</ele>
        <time>2013-03-15T12:07:37Z</time>
      </trkpt>
      <trkpt lat="42.9086" lon="0.30719">
        <ele>1622.8</ele>
        <time>2013-03-15T12:07:48Z</time>
      </trkpt>
      <trkpt lat="42.90851" lon="0.30716">
        <ele>1621.4</ele>
        <time>2013-03-15T12:07:59Z</time>
      </trkpt>
      <trkpt lat="42.90842" lon="0.30712">
        <ele>1620.4</ele>
        <time>2013-03-15T12:08:09Z</time>
      </trkpt>
      <trkpt lat="42.90833" lon="0.30706">
        <ele>1620</ele>
        <time>2013-03-15T12:08:19Z</time>
      </trkpt>
      <trkpt lat="42.90826" lon="0.30702">
        <ele>1618.5</ele>
        <time>2013-03-15T12:08:40Z</time>
      </trkpt>
      <trkpt lat="42.90819" lon="0.30699">
        <ele>1617.6</ele>
        <time>2013-03-15T12:10:05Z</time>
      </trkpt>
      <trkpt lat="42.90811" lon="0.30691">
        <ele>1617.1</ele>
        <time>2013-03-15T12:10:15Z</time>
      </trkpt>
      <trkpt lat="42.90803" lon="0.30685">
        <ele>1617.1</ele>
        <time>2013-03-15T12:10:25Z</time>
      </trkpt>
      <trkpt lat="42.90795" lon="0.30679">
        <ele>1618.5</ele>
        <time>2013-03-15T12:10:36Z</time>
      </trkpt>
      <trkpt lat="42.90786" lon="0.30671">
        <ele>1619</ele>
        <time>2013-03-15T12:10:51Z</time>
      </trkpt>
      <trkpt lat="42.9078" lon="0.30662">
        <ele>1620</ele>
        <time>2013-03-15T12:11:01Z</time>
      </trkpt>
      <trkpt lat="42.90773" lon="0.30655">
        <ele>1619.5</ele>
        <time>2013-03-15T12:11:30Z</time>
      </trkpt>
      <trkpt lat="42.90765" lon="0.3065">
        <ele>1620.9</ele>
        <time>2013-03-15T12:11:41Z</time>
      </trkpt>
      <trkpt lat="42.90759" lon="0.30649">
        <ele>1620.4</ele>
        <time>2013-03-15T12:12:11Z</time>
      </trkpt>
      <trkpt lat="42.90749" lon="0.30644">
        <ele>1621.9</ele>
        <time>2013-03-15T12:12:20Z</time>
      </trkpt>
      <trkpt lat="42.90741" lon="0.3064">
        <ele>1622.8</ele>
        <time>2013-03-15T12:12:30Z</time>
      </trkpt>
      <trkpt lat="42.90733" lon="0.30633">
        <ele>1623.8</ele>
        <time>2013-03-15T12:12:41Z</time>
      </trkpt>
      <trkpt lat="42.90724" lon="0.30629">
        <ele>1612.8</ele>
        <time>2013-03-15T12:12:51Z</time>
      </trkpt>
      <trkpt lat="42.90716" lon="0.30623">
        <ele>1623.3</ele>
        <time>2013-03-15T12:13:02Z</time>
      </trkpt>
      <trkpt lat="42.90706" lon="0.30621">
        <ele>1623.3</ele>
        <time>2013-03-15T12:13:12Z</time>
      </trkpt>
      <trkpt lat="42.90697" lon="0.3062">
        <ele>1623.3</ele>
        <time>2013-03-15T12:13:21Z</time>
      </trkpt>
      <trkpt lat="42.90688" lon="0.30619">
        <ele>1624.3</ele>
        <time>2013-03-15T12:13:32Z</time>
      </trkpt>
      <trkpt lat="42.9068" lon="0.30615">
        <ele>1622.4</ele>
        <time>2013-03-15T12:13:43Z</time>
      </trkpt>
      <trkpt lat="42.90673" lon="0.3061">
        <ele>1621.9</ele>
        <time>2013-03-15T12:14:15Z</time>
      </trkpt>
      <trkpt lat="42.90664" lon="0.30613">
        <ele>1621.4</ele>
        <time>2013-03-15T12:14:25Z</time>
      </trkpt>
      <trkpt lat="42.90655" lon="0.30617">
        <ele>1621.4</ele>
        <time>2013-03-15T12:14:35Z</time>
      </trkpt>
      <trkpt lat="42.90642" lon="0.30611">
        <ele>1618.5</ele>
        <time>2013-03-15T12:14:58Z</time>
      </trkpt>
      <trkpt lat="42.90633" lon="0.30609">
        <ele>1612.8</ele>
        <time>2013-03-15T12:15:11Z</time>
      </trkpt>
      <trkpt lat="42.90621" lon="0.30607">
        <ele>1610.5</ele>
        <time>2013-03-15T12:15:22Z</time>
      </trkpt>
      <trkpt lat="42.90612" lon="0.30604">
        <ele>1610.2</ele>
        <time>2013-03-15T12:15:31Z</time>
      </trkpt>
      <trkpt lat="42.906" lon="0.30601">
        <ele>1610.2</ele>
        <time>2013-03-15T12:15:40Z</time>
      </trkpt>
      <trkpt lat="42.90592" lon="0.306">
        <ele>1610.2</ele>
        <time>2013-03-15T12:16:25Z</time>
      </trkpt>
      <trkpt lat="42.90585" lon="0.30598">
        <ele>1610</ele>
        <time>2013-03-15T12:16:42Z</time>
      </trkpt>
      <trkpt lat="42.90577" lon="0.30589">
        <ele>1605.1</ele>
        <time>2013-03-15T12:17:46Z</time>
      </trkpt>
      <trkpt lat="42.90576" lon="0.30577">
        <ele>1604.1</ele>
        <time>2013-03-15T12:17:55Z</time>
      </trkpt>
      <trkpt lat="42.90577" lon="0.30565">
        <ele>1603.6</ele>
        <time>2013-03-15T12:18:05Z</time>
      </trkpt>
      <trkpt lat="42.90572" lon="0.30555">
        <ele>1601.7</ele>
        <time>2013-03-15T12:18:15Z</time>
      </trkpt>
      <trkpt lat="42.90568" lon="0.30543">
        <ele>1597.4</ele>
        <time>2013-03-15T12:18:28Z</time>
      </trkpt>
      <trkpt lat="42.90567" lon="0.30535">
        <ele>1594</ele>
        <time>2013-03-15T12:18:41Z</time>
      </trkpt>
      <trkpt lat="42.90561" lon="0.30524">
        <ele>1589.2</ele>
        <time>2013-03-15T12:18:59Z</time>
      </trkpt>
      <trkpt lat="42.90558" lon="0.30517">
        <ele>1586.3</ele>
        <time>2013-03-15T12:19:14Z</time>
      </trkpt>
      <trkpt lat="42.90553" lon="0.30508">
        <ele>1582</ele>
        <time>2013-03-15T12:19:30Z</time>
      </trkpt>
      <trkpt lat="42.90549" lon="0.305">
        <ele>1580.1</ele>
        <time>2013-03-15T12:20:00Z</time>
      </trkpt>
      <trkpt lat="42.9054" lon="0.30497">
        <ele>1578.1</ele>
        <time>2013-03-15T12:20:10Z</time>
      </trkpt>
      <trkpt lat="42.90532" lon="0.30497">
        <ele>1576.2</ele>
        <time>2013-03-15T12:20:20Z</time>
      </trkpt>
      <trkpt lat="42.90523" lon="0.30499">
        <ele>1574.8</ele>
        <time>2013-03-15T12:20:31Z</time>
      </trkpt>
      <trkpt lat="42.90514" lon="0.30501">
        <ele>1572.8</ele>
        <time>2013-03-15T12:20:41Z</time>
      </trkpt>
      <trkpt lat="42.90504" lon="0.30504">
        <ele>1571.4</ele>
        <time>2013-03-15T12:20:52Z</time>
      </trkpt>
      <trkpt lat="42.90495" lon="0.30509">
        <ele>1570.9</ele>
        <time>2013-03-15T12:21:08Z</time>
      </trkpt>
      <trkpt lat="42.90485" lon="0.30511">
        <ele>1568.5</ele>
        <time>2013-03-15T12:21:20Z</time>
      </trkpt>
      <trkpt lat="42.90476" lon="0.30513">
        <ele>1568.1</ele>
        <time>2013-03-15T12:21:31Z</time>
      </trkpt>
      <trkpt lat="42.90467" lon="0.30514">
        <ele>1566.1</ele>
        <time>2013-03-15T12:21:42Z</time>
      </trkpt>
      <trkpt lat="42.90457" lon="0.30516">
        <ele>1564.7</ele>
        <time>2013-03-15T12:21:53Z</time>
      </trkpt>
      <trkpt lat="42.90448" lon="0.30513">
        <ele>1562.8</ele>
        <time>2013-03-15T12:22:02Z</time>
      </trkpt>
      <trkpt lat="42.9044" lon="0.3051">
        <ele>1560.4</ele>
        <time>2013-03-15T12:22:13Z</time>
      </trkpt>
      <trkpt lat="42.90431" lon="0.30515">
        <ele>1558.4</ele>
        <time>2013-03-15T12:22:25Z</time>
      </trkpt>
      <trkpt lat="42.90421" lon="0.30514">
        <ele>1556.5</ele>
        <time>2013-03-15T12:22:37Z</time>
      </trkpt>
      <trkpt lat="42.90412" lon="0.30517">
        <ele>1555.1</ele>
        <time>2013-03-15T12:22:48Z</time>
      </trkpt>
      <trkpt lat="42.90402" lon="0.30515">
        <ele>1553.2</ele>
        <time>2013-03-15T12:22:59Z</time>
      </trkpt>
      <trkpt lat="42.90394" lon="0.30513">
        <ele>1552.2</ele>
        <time>2013-03-15T12:23:14Z</time>
      </trkpt>
      <trkpt lat="42.90386" lon="0.30519">
        <ele>1551.2</ele>
        <time>2013-03-15T12:23:25Z</time>
      </trkpt>
      <trkpt lat="42.90372" lon="0.30523">
        <ele>1549.8</ele>
        <time>2013-03-15T12:24:55Z</time>
      </trkpt>
      <trkpt lat="42.90361" lon="0.3052">
        <ele>1548.3</ele>
        <time>2013-03-15T12:25:07Z</time>
      </trkpt>
      <trkpt lat="42.90352" lon="0.30516">
        <ele>1546.9</ele>
        <time>2013-03-15T12:25:16Z</time>
      </trkpt>
      <trkpt lat="42.90342" lon="0.30515">
        <ele>1545.5</ele>
        <time>2013-03-15T12:25:25Z</time>
      </trkpt>
      <trkpt lat="42.90333" lon="0.30516">
        <ele>1544</ele>
        <time>2013-03-15T12:25:34Z</time>
      </trkpt>
      <trkpt lat="42.90323" lon="0.30517">
        <ele>1543.1</ele>
        <time>2013-03-15T12:25:43Z</time>
      </trkpt>
      <trkpt lat="42.90315" lon="0.30517">
        <ele>1542.1</ele>
        <time>2013-03-15T12:25:52Z</time>
      </trkpt>
      <trkpt lat="42.90305" lon="0.30515">
        <ele>1541.1</ele>
        <time>2013-03-15T12:26:01Z</time>
      </trkpt>
      <trkpt lat="42.90298" lon="0.30501">
        <ele>1540</ele>
        <time>2013-03-15T12:26:10Z</time>
      </trkpt>
      <trkpt lat="42.9032" lon="0.30464">
        <ele>1536.4</ele>
        <time>2013-03-15T12:26:19Z</time>
      </trkpt>
      <trkpt lat="42.90332" lon="0.30429">
        <ele>1531.1</ele>
        <time>2013-03-15T12:26:28Z</time>
      </trkpt>
      <trkpt lat="42.90341" lon="0.30403">
        <ele>1527.6</ele>
        <time>2013-03-15T14:31:36Z</time>
      </trkpt>
      <trkpt lat="42.90386" lon="0.30372">
        <ele>1529.8</ele>
        <time>2013-03-15T14:31:46Z</time>
      </trkpt>
      <trkpt lat="42.9044" lon="0.30292">
        <ele>1518.2</ele>
        <time>2013-03-15T14:31:56Z</time>
      </trkpt>
      <trkpt lat="42.90492" lon="0.30253">
        <ele>1512.2</ele>
        <time>2013-03-15T14:32:06Z</time>
      </trkpt>
      <trkpt lat="42.90547" lon="0.30206">
        <ele>1503.1</ele>
        <time>2013-03-15T14:32:16Z</time>
      </trkpt>
      <trkpt lat="42.90626" lon="0.30142">
        <ele>1487.7</ele>
        <time>2013-03-15T15:08:34Z</time>
      </trkpt>
      <trkpt lat="42.90674" lon="0.30099">
        <ele>1477.7</ele>
        <time>2013-03-15T15:08:42Z</time>
      </trkpt>
      <trkpt lat="42.90714" lon="0.30045">
        <ele>1463.8</ele>
        <time>2013-03-15T15:08:50Z</time>
      </trkpt>
      <trkpt lat="42.90753" lon="0.30016">
        <ele>1457.7</ele>
        <time>2013-03-15T15:09:00Z</time>
      </trkpt>
      <trkpt lat="42.90795" lon="0.30001">
        <ele>1455.1</ele>
        <time>2013-03-15T15:09:09Z</time>
      </trkpt>
      <trkpt lat="42.90848" lon="0.29985">
        <ele>1453.4</ele>
        <time>2013-03-15T15:09:19Z</time>
      </trkpt>
      <trkpt lat="42.90889" lon="0.29959">
        <ele>1450.5</ele>
        <time>2013-03-15T15:09:28Z</time>
      </trkpt>
      <trkpt lat="42.90946" lon="0.29938">
        <ele>1446.3</ele>
        <time>2013-03-15T15:09:36Z</time>
      </trkpt>
      <trkpt lat="42.90996" lon="0.29899">
        <ele>1437.4</ele>
        <time>2013-03-15T15:09:45Z</time>
      </trkpt>
      <trkpt lat="42.91039" lon="0.29843">
        <ele>1418.3</ele>
        <time>2013-03-15T15:09:54Z</time>
      </trkpt>
      <trkpt lat="42.91072" lon="0.29828">
        <ele>1427.7</ele>
        <time>2013-03-15T15:13:38Z</time>
      </trkpt>
      <trkpt lat="42.9108" lon="0.29833">
        <ele>1427.2</ele>
        <time>2013-03-15T15:13:48Z</time>
      </trkpt>
      <trkpt lat="42.91087" lon="0.29833">
        <ele>1427.7</ele>
        <time>2013-03-15T15:14:01Z</time>
      </trkpt>
      <trkpt lat="42.91096" lon="0.29832">
        <ele>1426.2</ele>
        <time>2013-03-15T15:14:14Z</time>
      </trkpt>
      <trkpt lat="42.91105" lon="0.29833">
        <ele>1426.7</ele>
        <time>2013-03-15T15:14:23Z</time>
      </trkpt>
      <trkpt lat="42.91115" lon="0.29838">
        <ele>1424.8</ele>
        <time>2013-03-15T15:14:33Z</time>
      </trkpt>
      <trkpt lat="42.91124" lon="0.29841">
        <ele>1423.8</ele>
        <time>2013-03-15T15:14:52Z</time>
      </trkpt>
      <trkpt lat="42.91129" lon="0.2985">
        <ele>1422.4</ele>
        <time>2013-03-15T15:15:01Z</time>
      </trkpt>
      <trkpt lat="42.91134" lon="0.29858">
        <ele>1419</ele>
        <time>2013-03-15T15:15:12Z</time>
      </trkpt>
      <trkpt lat="42.9114" lon="0.29865">
        <ele>1416.2</ele>
        <time>2013-03-15T15:15:20Z</time>
      </trkpt>
      <trkpt lat="42.91146" lon="0.29877">
        <ele>1413.8</ele>
        <time>2013-03-15T15:15:27Z</time>
      </trkpt>
      <trkpt lat="42.91153" lon="0.29884">
        <ele>1410.4</ele>
        <time>2013-03-15T15:15:36Z</time>
      </trkpt>
      <trkpt lat="42.91162" lon="0.29888">
        <ele>1407.5</ele>
        <time>2013-03-15T15:15:45Z</time>
      </trkpt>
      <trkpt lat="42.91171" lon="0.29889">
        <ele>1406.6</ele>
        <time>2013-03-15T15:16:14Z</time>
      </trkpt>
      <trkpt lat="42.91181" lon="0.29887">
        <ele>1405.1</ele>
        <time>2013-03-15T15:16:23Z</time>
      </trkpt>
      <trkpt lat="42.9119" lon="0.29886">
        <ele>1405.1</ele>
        <time>2013-03-15T15:16:32Z</time>
      </trkpt>
      <trkpt lat="42.91199" lon="0.29885">
        <ele>1405.6</ele>
        <time>2013-03-15T15:16:43Z</time>
      </trkpt>
      <trkpt lat="42.91209" lon="0.29887">
        <ele>1406.1</ele>
        <time>2013-03-15T15:16:53Z</time>
      </trkpt>
      <trkpt lat="42.91248" lon="0.29862">
        <ele>1428</ele>
        <time>2013-03-15T15:29:26Z</time>
      </trkpt>
      <trkpt lat="42.91311" lon="0.29813">
        <ele>1423.8</ele>
        <time>2013-03-15T15:30:52Z</time>
      </trkpt>
      <trkpt lat="42.91365" lon="0.29769">
        <ele>1421.2</ele>
        <time>2013-03-15T15:31:19Z</time>
      </trkpt>
      <trkpt lat="42.91423" lon="0.29691">
        <ele>1413.8</ele>
        <time>2013-03-15T15:32:02Z</time>
      </trkpt>
      <trkpt lat="42.9149" lon="0.29622">
        <ele>1406.5</ele>
        <time>2013-03-15T15:32:21Z</time>
      </trkpt>
      <trkpt lat="42.9156" lon="0.29583">
        <ele>1396</ele>
        <time>2013-03-15T15:32:49Z</time>
      </trkpt>
      <trkpt lat="42.91614" lon="0.29549">
        <ele>1375.5</ele>
        <time>2013-03-15T15:33:07Z</time>
      </trkpt>
      <trkpt lat="42.91675" lon="0.2953">
        <ele>1359.2</ele>
        <time>2013-03-15T15:33:40Z</time>
      </trkpt>
      <trkpt lat="42.91718" lon="0.29528">
        <ele>1344.1</ele>
        <time>2013-03-15T15:33:55Z</time>
      </trkpt>
      <trkpt lat="42.91761" lon="0.29533">
        <ele>1332.1</ele>
        <time>2013-03-15T15:34:09Z</time>
      </trkpt>
      <trkpt lat="42.91788" lon="0.29555">
        <ele>1331.2</ele>
        <time>2013-03-15T15:34:22Z</time>
      </trkpt>
      <trkpt lat="42.91816" lon="0.29578">
        <ele>1338.3</ele>
        <time>2013-03-15T15:34:35Z</time>
      </trkpt>
      <trkpt lat="42.91827" lon="0.29591">
        <ele>1335.4</ele>
        <time>2013-03-15T15:34:51Z</time>
      </trkpt>
      <trkpt lat="42.91835" lon="0.29599">
        <ele>1333</ele>
        <time>2013-03-15T15:35:00Z</time>
      </trkpt>
      <trkpt lat="42.91846" lon="0.29602">
        <ele>1330.6</ele>
        <time>2013-03-15T15:35:11Z</time>
      </trkpt>
      <trkpt lat="42.91862" lon="0.29595">
        <ele>1327.9</ele>
        <time>2013-03-15T15:35:21Z</time>
      </trkpt>
      <trkpt lat="42.91878" lon="0.29589">
        <ele>1327.1</ele>
        <time>2013-03-15T15:35:29Z</time>
      </trkpt>
      <trkpt lat="42.91895" lon="0.29582">
        <ele>1326</ele>
        <time>2013-03-15T15:35:38Z</time>
      </trkpt>
      <trkpt lat="42.91911" lon="0.29568">
        <ele>1321.6</ele>
        <time>2013-03-15T15:35:48Z</time>
      </trkpt>
      <trkpt lat="42.91926" lon="0.29561">
        <ele>1318.3</ele>
        <time>2013-03-15T15:35:57Z</time>
      </trkpt>
      <trkpt lat="42.91938" lon="0.29556">
        <ele>1316</ele>
        <time>2013-03-15T15:36:06Z</time>
      </trkpt>
      <trkpt lat="42.91953" lon="0.29551">
        <ele>1312.9</ele>
        <time>2013-03-15T15:36:17Z</time>
      </trkpt>
      <trkpt lat="42.91968" lon="0.29545">
        <ele>1309.5</ele>
        <time>2013-03-15T15:36:25Z</time>
      </trkpt>
      <trkpt lat="42.91982" lon="0.29542">
        <ele>1307.1</ele>
        <time>2013-03-15T15:36:36Z</time>
      </trkpt>
      <trkpt lat="42.91999" lon="0.29539">
        <ele>1304</ele>
        <time>2013-03-15T15:36:47Z</time>
      </trkpt>
      <trkpt lat="42.92017" lon="0.2953">
        <ele>1302.3</ele>
        <time>2013-03-15T15:37:54Z</time>
      </trkpt>
      <trkpt lat="42.92033" lon="0.29523">
        <ele>1300.6</ele>
        <time>2013-03-15T15:38:07Z</time>
      </trkpt>
      <trkpt lat="42.9205" lon="0.29518">
        <ele>1300</ele>
        <time>2013-03-15T15:38:18Z</time>
      </trkpt>
      <trkpt lat="42.92067" lon="0.29508">
        <ele>1297.7</ele>
        <time>2013-03-15T15:38:28Z</time>
      </trkpt>
      <trkpt lat="42.92095" lon="0.29508">
        <ele>1298.4</ele>
        <time>2013-03-15T15:44:11Z</time>
      </trkpt>
      <trkpt lat="42.92116" lon="0.29505">
        <ele>1298.2</ele>
        <time>2013-03-15T15:44:20Z</time>
      </trkpt>
      <trkpt lat="42.92144" lon="0.29491">
        <ele>1294</ele>
        <time>2013-03-15T15:44:29Z</time>
      </trkpt>
      <trkpt lat="42.92171" lon="0.29471">
        <ele>1288.9</ele>
        <time>2013-03-15T15:44:38Z</time>
      </trkpt>
      <trkpt lat="42.92191" lon="0.29446">
        <ele>1280.9</ele>
        <time>2013-03-15T15:44:48Z</time>
      </trkpt>
      <trkpt lat="42.92198" lon="0.29428">
        <ele>1274.9</ele>
        <time>2013-03-15T15:44:59Z</time>
      </trkpt>
      <trkpt lat="42.92211" lon="0.29412">
        <ele>1270.2</ele>
        <time>2013-03-15T15:45:10Z</time>
      </trkpt>
      <trkpt lat="42.92229" lon="0.294">
        <ele>1267.3</ele>
        <time>2013-03-15T15:45:22Z</time>
      </trkpt>
      <trkpt lat="42.92267" lon="0.29387">
        <ele>1263.3</ele>
        <time>2013-03-15T15:45:35Z</time>
      </trkpt>
      <trkpt lat="42.92279" lon="0.29377">
        <ele>1260</ele>
        <time>2013-03-15T15:45:46Z</time>
      </trkpt>
      <trkpt lat="42.92305" lon="0.29354">
        <ele>1252.9</ele>
        <time>2013-03-15T15:45:58Z</time>
      </trkpt>
      <trkpt lat="42.9232" lon="0.29345">
        <ele>1249.5</ele>
        <time>2013-03-15T15:46:12Z</time>
      </trkpt>
      <trkpt lat="42.92344" lon="0.29332">
        <ele>1244.6</ele>
        <time>2013-03-15T15:46:24Z</time>
      </trkpt>
      <trkpt lat="42.92347" lon="0.29335">
        <ele>1244.9</ele>
        <time>2013-03-15T15:50:28Z</time>
      </trkpt>
      <trkpt lat="42.92354" lon="0.29337">
        <ele>1244.4</ele>
        <time>2013-03-15T15:50:40Z</time>
      </trkpt>
      <trkpt lat="42.92377" lon="0.29336">
        <ele>1241.7</ele>
        <time>2013-03-15T15:51:03Z</time>
      </trkpt>
      <trkpt lat="42.92401" lon="0.29345">
        <ele>1241.7</ele>
        <time>2013-03-15T15:51:19Z</time>
      </trkpt>
      <trkpt lat="42.9242" lon="0.29357">
        <ele>1242.5</ele>
        <time>2013-03-15T15:51:33Z</time>
      </trkpt>
      <trkpt lat="42.92435" lon="0.29367">
        <ele>1243.1</ele>
        <time>2013-03-15T15:51:47Z</time>
      </trkpt>
      <trkpt lat="42.92448" lon="0.29381">
        <ele>1244.4</ele>
        <time>2013-03-15T15:51:58Z</time>
      </trkpt>
      <trkpt lat="42.9246" lon="0.29395">
        <ele>1246</ele>
        <time>2013-03-15T15:52:11Z</time>
      </trkpt>
      <trkpt lat="42.92471" lon="0.29407">
        <ele>1247.2</ele>
        <time>2013-03-15T15:52:23Z</time>
      </trkpt>
      <trkpt lat="42.92482" lon="0.29421">
        <ele>1249.2</ele>
        <time>2013-03-15T15:52:35Z</time>
      </trkpt>
      <trkpt lat="42.92491" lon="0.29433">
        <ele>1251.8</ele>
        <time>2013-03-15T15:52:52Z</time>
      </trkpt>
      <trkpt lat="42.92501" lon="0.29444">
        <ele>1254.1</ele>
        <time>2013-03-15T15:53:08Z</time>
      </trkpt>
      <trkpt lat="42.92512" lon="0.29453">
        <ele>1255.6</ele>
        <time>2013-03-15T15:53:20Z</time>
      </trkpt>
      <trkpt lat="42.92523" lon="0.29459">
        <ele>1256.7</ele>
        <time>2013-03-15T15:53:32Z</time>
      </trkpt>
      <trkpt lat="42.92532" lon="0.29468">
        <ele>1258.9</ele>
        <time>2013-03-15T15:53:45Z</time>
      </trkpt>
      <trkpt lat="42.92544" lon="0.2948">
        <ele>1261.9</ele>
        <time>2013-03-15T15:53:57Z</time>
      </trkpt>
      <trkpt lat="42.92556" lon="0.29488">
        <ele>1264.1</ele>
        <time>2013-03-15T15:54:10Z</time>
      </trkpt>
      <trkpt lat="42.92568" lon="0.29497">
        <ele>1265.9</ele>
        <time>2013-03-15T15:54:22Z</time>
      </trkpt>
      <trkpt lat="42.9258" lon="0.29504">
        <ele>1267.1</ele>
        <time>2013-03-15T15:54:35Z</time>
      </trkpt>
      <trkpt lat="42.92592" lon="0.29511">
        <ele>1267.8</ele>
        <time>2013-03-15T15:54:46Z</time>
      </trkpt>
      <trkpt lat="42.92601" lon="0.29518">
        <ele>1268.2</ele>
        <time>2013-03-15T15:54:57Z</time>
      </trkpt>
      <trkpt lat="42.92617" lon="0.29524">
        <ele>1267.5</ele>
        <time>2013-03-15T15:55:09Z</time>
      </trkpt>
      <trkpt lat="42.92627" lon="0.29533">
        <ele>1268.3</ele>
        <time>2013-03-15T15:55:21Z</time>
      </trkpt>
      <trkpt lat="42.92639" lon="0.2954">
        <ele>1268.5</ele>
        <time>2013-03-15T15:55:34Z</time>
      </trkpt>
      <trkpt lat="42.9265" lon="0.29546">
        <ele>1268</ele>
        <time>2013-03-15T15:55:47Z</time>
      </trkpt>
      <trkpt lat="42.92661" lon="0.29553">
        <ele>1268.1</ele>
        <time>2013-03-15T15:57:41Z</time>
      </trkpt>
      <trkpt lat="42.92672" lon="0.29559">
        <ele>1267.5</ele>
        <time>2013-03-15T15:58:04Z</time>
      </trkpt>
      <trkpt lat="42.92682" lon="0.29564">
        <ele>1267.1</ele>
        <time>2013-03-15T15:58:21Z</time>
      </trkpt>
      <trkpt lat="42.92692" lon="0.29571">
        <ele>1267.1</ele>
        <time>2013-03-15T15:58:34Z</time>
      </trkpt>
      <trkpt lat="42.92701" lon="0.29579">
        <ele>1267</ele>
        <time>2013-03-15T15:58:48Z</time>
      </trkpt>
      <trkpt lat="42.92711" lon="0.29588">
        <ele>1265.9</ele>
        <time>2013-03-15T15:59:00Z</time>
      </trkpt>
      <trkpt lat="42.92717" lon="0.29599">
        <ele>1263.1</ele>
        <time>2013-03-15T15:59:10Z</time>
      </trkpt>
      <trkpt lat="42.92723" lon="0.29611">
        <ele>1260.5</ele>
        <time>2013-03-15T15:59:16Z</time>
      </trkpt>
      <trkpt lat="42.92728" lon="0.29617">
        <ele>1278.2</ele>
        <time>2013-03-15T15:59:25Z</time>
      </trkpt>
      <trkpt lat="42.92736" lon="0.2962">
        <ele>1275.3</ele>
        <time>2013-03-15T16:01:56Z</time>
      </trkpt>
      <trkpt lat="42.92749" lon="0.29612">
        <ele>1273.4</ele>
        <time>2013-03-15T16:02:10Z</time>
      </trkpt>
      <trkpt lat="42.92769" lon="0.29608">
        <ele>1267.6</ele>
        <time>2013-03-15T16:02:29Z</time>
      </trkpt>
      <trkpt lat="42.92786" lon="0.29607">
        <ele>1265.7</ele>
        <time>2013-03-15T16:02:45Z</time>
      </trkpt>
      <trkpt lat="42.92803" lon="0.29608">
        <ele>1262.3</ele>
        <time>2013-03-15T16:03:01Z</time>
      </trkpt>
      <trkpt lat="42.92815" lon="0.29607">
        <ele>1259.9</ele>
        <time>2013-03-15T16:03:17Z</time>
      </trkpt>
      <trkpt lat="42.92827" lon="0.29604">
        <ele>1256.6</ele>
        <time>2013-03-15T16:03:32Z</time>
      </trkpt>
      <trkpt lat="42.92846" lon="0.29598">
        <ele>1254.2</ele>
        <time>2013-03-15T16:03:44Z</time>
      </trkpt>
      <trkpt lat="42.9286" lon="0.29595">
        <ele>1252.2</ele>
        <time>2013-03-15T16:03:57Z</time>
      </trkpt>
      <trkpt lat="42.92874" lon="0.29594">
        <ele>1249.8</ele>
        <time>2013-03-15T16:04:13Z</time>
      </trkpt>
      <trkpt lat="42.92884" lon="0.29598">
        <ele>1248.4</ele>
        <time>2013-03-15T16:04:24Z</time>
      </trkpt>
      <trkpt lat="42.92893" lon="0.29601">
        <ele>1246.5</ele>
        <time>2013-03-15T16:04:34Z</time>
      </trkpt>
      <trkpt lat="42.92905" lon="0.29603">
        <ele>1244.1</ele>
        <time>2013-03-15T16:04:48Z</time>
      </trkpt>
      <trkpt lat="42.92917" lon="0.29606">
        <ele>1240.7</ele>
        <time>2013-03-15T16:05:03Z</time>
      </trkpt>
      <trkpt lat="42.9293" lon="0.29605">
        <ele>1238.8</ele>
        <time>2013-03-15T16:05:15Z</time>
      </trkpt>
      <trkpt lat="42.92943" lon="0.29601">
        <ele>1235.9</ele>
        <time>2013-03-15T16:05:25Z</time>
      </trkpt>
      <trkpt lat="42.92953" lon="0.296">
        <ele>1234</ele>
        <time>2013-03-15T16:05:35Z</time>
      </trkpt>
      <trkpt lat="42.92963" lon="0.296">
        <ele>1232.6</ele>
        <time>2013-03-15T16:05:47Z</time>
      </trkpt>
      <trkpt lat="42.92974" lon="0.296">
        <ele>1231.1</ele>
        <time>2013-03-15T16:05:57Z</time>
      </trkpt>
      <trkpt lat="42.92985" lon="0.29598">
        <ele>1229.2</ele>
        <time>2013-03-15T16:06:07Z</time>
      </trkpt>
      <trkpt lat="42.92995" lon="0.29595">
        <ele>1227.3</ele>
        <time>2013-03-15T16:06:17Z</time>
      </trkpt>
      <trkpt lat="42.93007" lon="0.29591">
        <ele>1223.9</ele>
        <time>2013-03-15T16:06:29Z</time>
      </trkpt>
      <trkpt lat="42.9302" lon="0.29588">
        <ele>1221.5</ele>
        <time>2013-03-15T16:06:42Z</time>
      </trkpt>
      <trkpt lat="42.9303" lon="0.29583">
        <ele>1219.6</ele>
        <time>2013-03-15T16:06:57Z</time>
      </trkpt>
      <trkpt lat="42.93045" lon="0.29576">
        <ele>1215.7</ele>
        <time>2013-03-15T16:07:12Z</time>
      </trkpt>
      <trkpt lat="42.93068" lon="0.29568">
        <ele>1212.4</ele>
        <time>2013-03-15T16:07:31Z</time>
      </trkpt>
      <trkpt lat="42.93087" lon="0.29562">
        <ele>1207.6</ele>
        <time>2013-03-15T16:07:51Z</time>
      </trkpt>
      <trkpt lat="42.93098" lon="0.2956">
        <ele>1206.1</ele>
        <time>2013-03-15T16:08:04Z</time>
      </trkpt>
      <trkpt lat="42.93115" lon="0.29551">
        <ele>1202.8</ele>
        <time>2013-03-15T16:08:20Z</time>
      </trkpt>
      <trkpt lat="42.93133" lon="0.2955">
        <ele>1199.4</ele>
        <time>2013-03-15T16:08:35Z</time>
      </trkpt>
      <trkpt lat="42.93148" lon="0.29549">
        <ele>1196.5</ele>
        <time>2013-03-15T16:08:47Z</time>
      </trkpt>
      <trkpt lat="42.93158" lon="0.29545">
        <ele>1194.6</ele>
        <time>2013-03-15T16:09:06Z</time>
      </trkpt>
      <trkpt lat="42.93168" lon="0.29541">
        <ele>1193.1</ele>
        <time>2013-03-15T16:09:15Z</time>
      </trkpt>
      <trkpt lat="42.93178" lon="0.29533">
        <ele>1189.8</ele>
        <time>2013-03-15T16:09:29Z</time>
      </trkpt>
      <trkpt lat="42.93189" lon="0.29525">
        <ele>1185.9</ele>
        <time>2013-03-15T16:10:12Z</time>
      </trkpt>
      <trkpt lat="42.93203" lon="0.29522">
        <ele>1183</ele>
        <time>2013-03-15T16:10:23Z</time>
      </trkpt>
      <trkpt lat="42.93216" lon="0.29517">
        <ele>1180.6</ele>
        <time>2013-03-15T16:10:34Z</time>
      </trkpt>
      <trkpt lat="42.93227" lon="0.29512">
        <ele>1178.7</ele>
        <time>2013-03-15T16:10:46Z</time>
      </trkpt>
      <trkpt lat="42.9324" lon="0.29506">
        <ele>1174.9</ele>
        <time>2013-03-15T16:10:58Z</time>
      </trkpt>
      <trkpt lat="42.93251" lon="0.29505">
        <ele>1172.5</ele>
        <time>2013-03-15T16:11:09Z</time>
      </trkpt>
      <trkpt lat="42.93262" lon="0.29498">
        <ele>1170.1</ele>
        <time>2013-03-15T16:11:20Z</time>
      </trkpt>
      <trkpt lat="42.93272" lon="0.2949">
        <ele>1167.7</ele>
        <time>2013-03-15T16:11:38Z</time>
      </trkpt>
      <trkpt lat="42.93281" lon="0.29482">
        <ele>1164.3</ele>
        <time>2013-03-15T16:11:50Z</time>
      </trkpt>
      <trkpt lat="42.93291" lon="0.29478">
        <ele>1161.9</ele>
        <time>2013-03-15T16:12:02Z</time>
      </trkpt>
      <trkpt lat="42.93297" lon="0.29484">
        <ele>1160.4</ele>
        <time>2013-03-15T16:12:12Z</time>
      </trkpt>
      <trkpt lat="42.9331" lon="0.29482">
        <ele>1156.1</ele>
        <time>2013-03-15T16:12:28Z</time>
      </trkpt>
      <trkpt lat="42.9332" lon="0.29488">
        <ele>1152.8</ele>
        <time>2013-03-15T16:12:39Z</time>
      </trkpt>
      <trkpt lat="42.93324" lon="0.29499">
        <ele>1149.9</ele>
        <time>2013-03-15T16:12:50Z</time>
      </trkpt>
      <trkpt lat="42.93329" lon="0.29515">
        <ele>1145.6</ele>
        <time>2013-03-15T16:13:03Z</time>
      </trkpt>
      <trkpt lat="42.93335" lon="0.29529">
        <ele>1144.1</ele>
        <time>2013-03-15T16:13:23Z</time>
      </trkpt>
      <trkpt lat="42.93341" lon="0.29537">
        <ele>1142.2</ele>
        <time>2013-03-15T16:13:32Z</time>
      </trkpt>
      <trkpt lat="42.93339" lon="0.29547">
        <ele>1141.2</ele>
        <time>2013-03-15T16:13:42Z</time>
      </trkpt>
      <trkpt lat="42.93336" lon="0.29552">
        <ele>1140.7</ele>
        <time>2013-03-15T16:14:25Z</time>
      </trkpt>
      <trkpt lat="42.93332" lon="0.29564">
        <ele>1139.3</ele>
        <time>2013-03-15T16:14:35Z</time>
      </trkpt>
      <trkpt lat="42.9333" lon="0.29577">
        <ele>1138.3</ele>
        <time>2013-03-15T16:14:44Z</time>
      </trkpt>
      <trkpt lat="42.93325" lon="0.2959">
        <ele>1138.3</ele>
        <time>2013-03-15T16:14:53Z</time>
      </trkpt>
      <trkpt lat="42.93313" lon="0.296">
        <ele>1141.1</ele>
        <time>2013-03-15T16:15:03Z</time>
      </trkpt>
      <trkpt lat="42.93304" lon="0.29613">
        <ele>1144.3</ele>
        <time>2013-03-15T16:15:12Z</time>
      </trkpt>
      <trkpt lat="42.93293" lon="0.29625">
        <ele>1146.6</ele>
        <time>2013-03-15T16:15:25Z</time>
      </trkpt>
      <trkpt lat="42.93282" lon="0.29636">
        <ele>1147.8</ele>
        <time>2013-03-15T16:15:33Z</time>
      </trkpt>
      <trkpt lat="42.93273" lon="0.29644">
        <ele>1148.1</ele>
        <time>2013-03-15T16:15:42Z</time>
      </trkpt>
      <trkpt lat="42.93264" lon="0.29656">
        <ele>1147.6</ele>
        <time>2013-03-15T16:15:51Z</time>
      </trkpt>
      <trkpt lat="42.93255" lon="0.29665">
        <ele>1146.6</ele>
        <time>2013-03-15T16:15:59Z</time>
      </trkpt>
      <trkpt lat="42.93244" lon="0.29675">
        <ele>1146.4</ele>
        <time>2013-03-15T16:16:08Z</time>
      </trkpt>
      <trkpt lat="42.93234" lon="0.29686">
        <ele>1146.9</ele>
        <time>2013-03-15T16:16:16Z</time>
      </trkpt>
      <trkpt lat="42.93224" lon="0.29695">
        <ele>1147.2</ele>
        <time>2013-03-15T16:16:26Z</time>
      </trkpt>
      <trkpt lat="42.93214" lon="0.29706">
        <ele>1147</ele>
        <time>2013-03-15T16:16:36Z</time>
      </trkpt>
      <trkpt lat="42.93208" lon="0.29715">
        <ele>1140.7</ele>
        <time>2013-03-15T16:17:29Z</time>
      </trkpt>
      <trkpt lat="42.93201" lon="0.29724">
        <ele>1141.2</ele>
        <time>2013-03-15T16:17:37Z</time>
      </trkpt>
      <trkpt lat="42.93207" lon="0.29731">
        <ele>1140.7</ele>
        <time>2013-03-15T16:17:45Z</time>
      </trkpt>
      <trkpt lat="42.93215" lon="0.29739">
        <ele>1140.3</ele>
        <time>2013-03-15T16:17:54Z</time>
      </trkpt>
      <trkpt lat="42.93225" lon="0.29743">
        <ele>1140.3</ele>
        <time>2013-03-15T16:18:03Z</time>
      </trkpt>
      <trkpt lat="42.93235" lon="0.29747">
        <ele>1139.8</ele>
        <time>2013-03-15T16:18:12Z</time>
      </trkpt>
      <trkpt lat="42.93245" lon="0.29749">
        <ele>1139.3</ele>
        <time>2013-03-15T16:18:21Z</time>
      </trkpt>
      <trkpt lat="42.93255" lon="0.29751">
        <ele>1139.3</ele>
        <time>2013-03-15T16:18:29Z</time>
      </trkpt>
      <trkpt lat="42.93265" lon="0.29751">
        <ele>1138.3</ele>
        <time>2013-03-15T16:18:37Z</time>
      </trkpt>
      <trkpt lat="42.93269" lon="0.29754">
        <ele>1138.3</ele>
        <time>2013-03-15T16:19:31Z</time>
      </trkpt>
      <trkpt lat="42.93281" lon="0.29756">
        <ele>1138.8</ele>
        <time>2013-03-15T16:19:41Z</time>
      </trkpt>
      <trkpt lat="42.93291" lon="0.2976">
        <ele>1138.3</ele>
        <time>2013-03-15T16:19:50Z</time>
      </trkpt>
      <trkpt lat="42.933" lon="0.29763">
        <ele>1138.3</ele>
        <time>2013-03-15T16:20:00Z</time>
      </trkpt>
      <trkpt lat="42.93309" lon="0.29766">
        <ele>1137.9</ele>
        <time>2013-03-15T16:20:12Z</time>
      </trkpt>
      <trkpt lat="42.93318" lon="0.29767">
        <ele>1137.9</ele>
        <time>2013-03-15T16:20:21Z</time>
      </trkpt>
      <trkpt lat="42.93328" lon="0.29765">
        <ele>1138.3</ele>
        <time>2013-03-15T16:20:30Z</time>
      </trkpt>
      <trkpt lat="42.93338" lon="0.29764">
        <ele>1137.9</ele>
        <time>2013-03-15T16:20:39Z</time>
      </trkpt>
      <trkpt lat="42.93348" lon="0.29765">
        <ele>1138.8</ele>
        <time>2013-03-15T16:20:48Z</time>
      </trkpt>
      <trkpt lat="42.93358" lon="0.29768">
        <ele>1138.3</ele>
        <time>2013-03-15T16:20:57Z</time>
      </trkpt>
      <trkpt lat="42.93368" lon="0.29774">
        <ele>1138.8</ele>
        <time>2013-03-15T16:21:05Z</time>
      </trkpt>
      <trkpt lat="42.93377" lon="0.2978">
        <ele>1138.8</ele>
        <time>2013-03-15T16:21:13Z</time>
      </trkpt>
      <trkpt lat="42.93387" lon="0.29787">
        <ele>1138.8</ele>
        <time>2013-03-15T16:21:45Z</time>
      </trkpt>
      <trkpt lat="42.93393" lon="0.29798">
        <ele>1139.8</ele>
        <time>2013-03-15T16:21:54Z</time>
      </trkpt>
      <trkpt lat="42.93398" lon="0.2981">
        <ele>1139.3</ele>
        <time>2013-03-15T16:22:03Z</time>
      </trkpt>
      <trkpt lat="42.93401" lon="0.29822">
        <ele>1139.8</ele>
        <time>2013-03-15T16:22:11Z</time>
      </trkpt>
      <trkpt lat="42.93407" lon="0.29834">
        <ele>1139.8</ele>
        <time>2013-03-15T16:22:19Z</time>
      </trkpt>
      <trkpt lat="42.93413" lon="0.29844">
        <ele>1139.8</ele>
        <time>2013-03-15T16:22:27Z</time>
      </trkpt>
      <trkpt lat="42.93421" lon="0.29853">
        <ele>1139.8</ele>
        <time>2013-03-15T16:22:35Z</time>
      </trkpt>
      <trkpt lat="42.93429" lon="0.29862">
        <ele>1139.3</ele>
        <time>2013-03-15T16:22:42Z</time>
      </trkpt>
      <trkpt lat="42.93435" lon="0.2987">
        <ele>1139.3</ele>
        <time>2013-03-15T16:22:49Z</time>
      </trkpt>
      <trkpt lat="42.93443" lon="0.29879">
        <ele>1139.3</ele>
        <time>2013-03-15T16:22:57Z</time>
      </trkpt>
      <trkpt lat="42.9345" lon="0.2989">
        <ele>1139.8</ele>
        <time>2013-03-15T16:23:04Z</time>
      </trkpt>
      <trkpt lat="42.93458" lon="0.299">
        <ele>1139.3</ele>
        <time>2013-03-15T16:23:14Z</time>
      </trkpt>
      <trkpt lat="42.93465" lon="0.29913">
        <ele>1139.8</ele>
        <time>2013-03-15T16:23:22Z</time>
      </trkpt>
      <trkpt lat="42.93466" lon="0.29928">
        <ele>1139.8</ele>
        <time>2013-03-15T16:23:30Z</time>
      </trkpt>
      <trkpt lat="42.93469" lon="0.29942">
        <ele>1140.3</ele>
        <time>2013-03-15T16:23:38Z</time>
      </trkpt>
      <trkpt lat="42.93472" lon="0.29953">
        <ele>1140.3</ele>
        <time>2013-03-15T16:23:45Z</time>
      </trkpt>
      <trkpt lat="42.93478" lon="0.29964">
        <ele>1139.8</ele>
        <time>2013-03-15T16:23:54Z</time>
      </trkpt>
      <trkpt lat="42.93486" lon="0.29974">
        <ele>1139.8</ele>
        <time>2013-03-15T16:24:02Z</time>
      </trkpt>
      <trkpt lat="42.93495" lon="0.29981">
        <ele>1139.3</ele>
        <time>2013-03-15T16:24:09Z</time>
      </trkpt>
      <trkpt lat="42.93502" lon="0.29991">
        <ele>1140.3</ele>
        <time>2013-03-15T16:24:19Z</time>
      </trkpt>
      <trkpt lat="42.93508" lon="0.3">
        <ele>1139.8</ele>
        <time>2013-03-15T16:24:47Z</time>
      </trkpt>
      <trkpt lat="42.93509" lon="0.30013">
        <ele>1139.8</ele>
        <time>2013-03-15T16:24:54Z</time>
      </trkpt>
      <trkpt lat="42.93512" lon="0.30026">
        <ele>1139.3</ele>
        <time>2013-03-15T16:24:59Z</time>
      </trkpt>
      <trkpt lat="42.93514" lon="0.30038">
        <ele>1143.6</ele>
        <time>2013-03-15T16:25:07Z</time>
      </trkpt>
      <trkpt lat="42.93519" lon="0.30049">
        <ele>1140.3</ele>
        <time>2013-03-15T16:25:14Z</time>
      </trkpt>
      <trkpt lat="42.93525" lon="0.30059">
        <ele>1141.2</ele>
        <time>2013-03-15T16:25:23Z</time>
      </trkpt>
      <trkpt lat="42.93532" lon="0.30066">
        <ele>1140.7</ele>
        <time>2013-03-15T16:25:32Z</time>
      </trkpt>
      <trkpt lat="42.9354" lon="0.30073">
        <ele>1142.2</ele>
        <time>2013-03-15T16:25:41Z</time>
      </trkpt>
      <trkpt lat="42.93547" lon="0.30081">
        <ele>1142.7</ele>
        <time>2013-03-15T16:25:50Z</time>
      </trkpt>
      <trkpt lat="42.93554" lon="0.3009">
        <ele>1143.1</ele>
        <time>2013-03-15T16:26:00Z</time>
      </trkpt>
      <trkpt lat="42.9356" lon="0.30103">
        <ele>1143.1</ele>
        <time>2013-03-15T16:26:10Z</time>
      </trkpt>
      <trkpt lat="42.93568" lon="0.30108">
        <ele>1144.1</ele>
        <time>2013-03-15T16:26:20Z</time>
      </trkpt>
      <trkpt lat="42.93574" lon="0.3012">
        <ele>1144.1</ele>
        <time>2013-03-15T16:26:28Z</time>
      </trkpt>
      <trkpt lat="42.9358" lon="0.3013">
        <ele>1143.6</ele>
        <time>2013-03-15T16:26:37Z</time>
      </trkpt>
      <trkpt lat="42.93585" lon="0.30142">
        <ele>1144.1</ele>
        <time>2013-03-15T16:26:46Z</time>
      </trkpt>
      <trkpt lat="42.93591" lon="0.30152">
        <ele>1144.6</ele>
        <time>2013-03-15T16:26:56Z</time>
      </trkpt>
      <trkpt lat="42.93599" lon="0.30162">
        <ele>1144.6</ele>
        <time>2013-03-15T16:27:29Z</time>
      </trkpt>
      <trkpt lat="42.93603" lon="0.30175">
        <ele>1145.1</ele>
        <time>2013-03-15T16:27:38Z</time>
      </trkpt>
      <trkpt lat="42.93609" lon="0.30187">
        <ele>1145.6</ele>
        <time>2013-03-15T16:27:47Z</time>
      </trkpt>
      <trkpt lat="42.93615" lon="0.30198">
        <ele>1146</ele>
        <time>2013-03-15T16:27:55Z</time>
      </trkpt>
      <trkpt lat="42.93622" lon="0.30207">
        <ele>1146</ele>
        <time>2013-03-15T16:28:02Z</time>
      </trkpt>
      <trkpt lat="42.93628" lon="0.3022">
        <ele>1147</ele>
        <time>2013-03-15T16:28:10Z</time>
      </trkpt>
      <trkpt lat="42.93633" lon="0.30231">
        <ele>1147</ele>
        <time>2013-03-15T16:28:17Z</time>
      </trkpt>
      <trkpt lat="42.9364" lon="0.3024">
        <ele>1147.5</ele>
        <time>2013-03-15T16:28:24Z</time>
      </trkpt>
      <trkpt lat="42.93647" lon="0.3025">
        <ele>1147.5</ele>
        <time>2013-03-15T16:28:31Z</time>
      </trkpt>
      <trkpt lat="42.93653" lon="0.30259">
        <ele>1147.5</ele>
        <time>2013-03-15T16:28:38Z</time>
      </trkpt>
      <trkpt lat="42.93661" lon="0.30269">
        <ele>1147.9</ele>
        <time>2013-03-15T16:28:46Z</time>
      </trkpt>
      <trkpt lat="42.93671" lon="0.30275">
        <ele>1148.9</ele>
        <time>2013-03-15T16:28:53Z</time>
      </trkpt>
      <trkpt lat="42.93681" lon="0.30276">
        <ele>1149.4</ele>
        <time>2013-03-15T16:29:01Z</time>
      </trkpt>
      <trkpt lat="42.93692" lon="0.30276">
        <ele>1150.3</ele>
        <time>2013-03-15T16:29:09Z</time>
      </trkpt>
      <trkpt lat="42.93702" lon="0.3027">
        <ele>1150.8</ele>
        <time>2013-03-15T16:29:17Z</time>
      </trkpt>
      <trkpt lat="42.93711" lon="0.30271">
        <ele>1151.8</ele>
        <time>2013-03-15T16:29:26Z</time>
      </trkpt>
    </trkseg>
  </trk>
</gpx>